Return to Metar
METAR CYNL 052100Z AUTO 34006G17KT 9SM CLR 05/M11 A3025 RMK AO1 SLP270
METAR CYNL 052000Z AUTO 35010G15KT 9SM CLR 05/M11 A3025 RMK AO1 SLP270
METAR CYNL 051900Z AUTO 33008G16KT 9SM CLR 05/M10 A3025 RMK AO1 WSHFT (18)46 SLP269
SPECI CYNL 051846Z AUTO 31010KT 9SM CLR 05/M10 A3025 RMK AO1 WSHFT (18)46 SLP269
METAR CYNL 051800Z AUTO 32008G15KT 9SM CLR 05/M09 A3025 RMK AO1 SLP269
METAR CYNL 051700Z AUTO 35008KT 9SM FEW045 05/M08 A3025 RMK AO1 SLP268
METAR CYNL 051600Z AUTO 32010KT 9SM BKN041 04/M08 A3025 RMK AO1 SLP268
METAR CYNL 051500Z AUTO 34008KT 9SM SCT037 03/M07 A3025 RMK AO1 SLP269
METAR CYNL 051400Z AUTO 31006KT 9SM CLR 02/M07 A3025 RMK AO1 SLP271
METAR CYNL 051300Z AUTO 27004KT 9SM BKN040 01/M07 A3025 RMK AO1 SLP271
METAR CYNL 051200Z AUTO 28004KT 9SM OVC038 M01/M07 A3025 RMK AO1 SLP272
METAR CYNL 051100Z AUTO 33003KT 9SM OVC036 M01/M07 A3024 RMK AO1 SLP269
METAR CYNL 051000Z AUTO 00000KT 9SM OVC034 M01/M07 A3023 RMK AO1 SLP267
METAR CYNL 050900Z AUTO 32002KT 9SM OVC034 M01/M07 A3023 RMK AO1 SLP266
METAR CYNL 050800Z AUTO 31003KT 9SM OVC036 M01/M07 A3023 RMK AO1 SLP265
METAR CYNL 050700Z AUTO 00000KT 9SM OVC038 M01/M06 A3022 RMK AO1 SLP262
METAR CYNL 050600Z AUTO 33002KT 9SM OVC038 M01/M06 A3022 RMK AO1 SLP263
METAR CYNL 050500Z AUTO 32002KT 9SM OVC037 M01/M06 A3023 RMK AO1 SLP265
METAR CYNL 050400Z AUTO 00000KT 9SM OVC038 M00/M07 A3022 RMK AO1 SLP264
METAR CYNL 050300Z AUTO 00000KT 9SM OVC037 00/M06 A3022 RMK AO1 SLP264
METAR CYNL 050200Z AUTO 02004KT 9SM OVC037 01/M06 A3021 RMK AO1 SLP261
METAR CYNL 050100Z AUTO 02003KT 9SM OVC039 01/M07 A3021 RMK AO1 SLP262
METAR CYNL 050000Z AUTO 01005KT 340V050 9SM OVC042 02/M07 A3021 RMK AO1 SLP261
METAR CYNL 042300Z AUTO 07005KT 9SM OVC044 02/M07 A3021 RMK AO1 SLP264
METAR CYNL 042200Z AUTO 00004KT 9SM OVC047 02/M07 A3021 RMK AO1 SLP264
METAR CYNL 042100Z AUTO 06007KT 9SM BKN031 OVC048 02/M06 A3021 RMK AO1 SLP264
SPECI CYNL 042014Z AUTO 00005KT 320V040 9SM SCT029 BKN047 OVC210 02/M06 A3021 RMK AO1 SLP263
SPECI CYNL 042012Z AUTO 00005KT 320V040 9SM BKN029 BKN047 OVC210 02/M06 A3021 RMK AO1 SLP263
METAR CYNL 042000Z AUTO 34003KT 9SM BKN047 BKN180 02/M06 A3021 RMK AO1 SLP263
METAR CYNL 041900Z AUTO 32003KT 9SM BKN048 02/M06 A3022 RMK AO1 SLP264
METAR CYNL 041800Z AUTO 35005KT 9SM BKN047 01/M07 A3022 RMK AO1 SLP266
SPECI CYNL 041731Z AUTO 33004KT 9SM SCT028 BKN045 00/M07 A3022 RMK AO1 SLP267
METAR CYNL 041700Z AUTO 01003KT 9SM BKN029 OVC042 M00/M08 A3022 RMK AO1 SLP267
SPECI CYNL 041648Z AUTO 35004KT 9SM BKN029 OVC200 M00/M08 A3022 RMK AO1 SLP266
METAR CYNL 041600Z AUTO 33005KT 9SM OVC031 M01/M08 A3021 RMK AO1 SLP266
METAR CYNL 041500Z AUTO 34004KT 9SM OVC044 M01/M08 A3021 RMK AO1 SLP265
METAR CYNL 041400Z AUTO 01004KT 9SM OVC042 M02/M09 A3021 RMK AO1 SLP266
METAR CYNL 041300Z AUTO 00000KT 9SM OVC038 M03/M09 A3021 RMK AO1 SLP265
SPECI CYNL 041233Z AUTO 00000KT 9SM BKN030 OVC037 M05/M10 A3021 RMK AO1 SLP265
METAR CYNL 041200Z AUTO 00000KT 9SM OVC028 M06/M10 A3021 RMK AO1 SLP265
SPECI CYNL 041129Z AUTO 20003KT 9SM OVC029 M06/M10 A3020 RMK AO1 SLP264
METAR CYNL 041100Z AUTO 00000KT 9SM OVC032 M06/M10 A3020 RMK AO1 SLP264
METAR CYNL 041000Z AUTO 32002KT 9SM OVC035 M06/M10 A3019 RMK AO1 SLP260
METAR CYNL 040900Z AUTO 00000KT 9SM OVC034 M05/M10 A3019 RMK AO1 SLP259
METAR CYNL 040800Z AUTO 00000KT 9SM OVC032 M05/M10 A3018 RMK AO1 SLP257
METAR CYNL 040700Z AUTO 00000KT 9SM OVC034 M04/M10 A3019 RMK AO1 SLP257
METAR CYNL 040600Z AUTO 00000KT 9SM OVC034 M04/M10 A3019 RMK AO1 SLP259
METAR CYNL 040500Z AUTO 33003KT 9SM OVC039 M04/M12 A3019 RMK AO1 SLP260
METAR CYNL 040400Z AUTO 28003KT 9SM OVC040 M03/M11 A3019 RMK AO1 SLP260
METAR CYNL 040300Z AUTO 28003KT 9SM OVC041 M03/M11 A3019 RMK AO1 SLP261
METAR CYNL 040200Z AUTO 30005KT 9SM OVC039 M02/M11 A3019 RMK AO1 SLP262
METAR CYNL 040100Z AUTO 29005KT 9SM OVC038 M01/M10 A3019 RMK AO1 SLP263
METAR CYNL 040000Z AUTO 31005KT 9SM OVC035 M01/M09 A3019 RMK AO1 SLP263
METAR CYNL 032300Z AUTO 34009KT 9SM OVC035 M01/M09 A3019 RMK AO1 SLP267
SPECI CYNL 032224Z AUTO 35009KT 9SM OVC030 M01/M08 A3019 RMK AO1 SLP268
METAR CYNL 032200Z AUTO 01006KT 9SM OVC028 M01/M08 A3020 RMK AO1 SLP268
METAR CYNL 032100Z AUTO 30005KT 9SM BKN026 OVC032 M01/M08 A3020 RMK AO1 SLP267
SPECI CYNL 032033Z AUTO 34007KT 9SM BKN026 OVC033 M01/M08 A3020 RMK AO1 SLP266
SPECI CYNL 032032Z AUTO 32008KT 9SM SCT026 OVC033 M01/M08 A3020 RMK AO1 SLP266
SPECI CYNL 032018Z AUTO 31009KT 9SM BKN026 OVC033 M01/M09 A3020 RMK AO1 SLP266
SPECI CYNL 032014Z AUTO 34006KT 9SM SCT025 OVC033 M01/M08 A3020 RMK AO1 SLP266
SPECI CYNL 032001Z AUTO 31007KT 9SM BKN025 OVC032 M01/M08 A3020 RMK AO1 SLP266
METAR CYNL 032000Z AUTO 32007KT 9SM BKN024 OVC032 M01/M08 A3020 RMK AO1 SLP266
SPECI CYNL 031942Z AUTO 34005KT 9SM BKN023 OVC032 M01/M08 A3020 RMK AO1 SLP267
SPECI CYNL 031941Z AUTO 35007KT 9SM SCT023 OVC032 M01/M08 A3020 RMK AO1 SLP267
METAR CYNL 031900Z AUTO 33008KT 300V000 9SM BKN022 OVC032 M02/M09 A3020 RMK AO1 SLP268
METAR CYNL 031800Z AUTO 30008KT 9SM BKN023 OVC031 M02/M09 A3021 RMK AO1 SLP270
SPECI CYNL 031746Z AUTO 31007KT 9SM BKN023 OVC032 M03/M10 A3021 RMK AO1 SLP271
SPECI CYNL 031739Z AUTO 31007KT 9SM SCT022 OVC031 M03/M10 A3021 RMK AO1 SLP271
SPECI CYNL 031738Z AUTO 31008KT 9SM SCT022 BKN027 OVC032 M03/M10 A3021 RMK AO1 SLP272
SPECI CYNL 031735Z AUTO 32007KT 9SM SCT022 OVC032 M03/M10 A3021 RMK AO1 SLP272
SPECI CYNL 031701Z AUTO 31005KT 9SM BKN021 OVC032 M04/M10 A3021 RMK AO1 SLP273
METAR CYNL 031700Z AUTO 31005KT 9SM SCT021 OVC032 M04/M10 A3022 RMK AO1 SLP273
SPECI CYNL 031632Z AUTO 30005KT 9SM FEW019 OVC030 M04/M11 A3022 RMK AO1 SLP275
METAR CYNL 031600Z AUTO 33008KT 9SM OVC027 M05/M11 A3022 RMK AO1 SLP277
SPECI CYNL 031523Z AUTO 29006KT 9SM OVC025 M06/M12 A3022 RMK AO1 SLP278
SPECI CYNL 031515Z AUTO 30006KT 3SM OVC024 M07/M12 A3022 RMK AO1 SLP279
SPECI CYNL 031512Z AUTO 30006KT 2 1/2SM OVC024 M07/M12 A3022 RMK AO1 SLP279
SPECI CYNL 031511Z AUTO 31007KT 3SM OVC023 M07/M12 A3022 RMK AO1 SLP279
SPECI CYNL 031510Z AUTO 30007KT 2 1/2SM OVC023 M07/M12 A3023 RMK AO1 SLP279
METAR CYNL 031500Z AUTO 32006KT 9SM OVC022 M07/M13 A3023 RMK AO1 SLP280
METAR CYNL 031400Z AUTO 29006KT 9SM OVC017 M08/M14 A3022 RMK AO1 SLP280
METAR CYNL 031300Z AUTO 31006KT 9SM OVC015 M09/M15 A3022 RMK AO1 SLP280
SPECI CYNL 031247Z AUTO 31003KT 9SM OVC015 M09/M15 A3022 RMK AO1 SLP279
SPECI CYNL 031240Z AUTO 31004KT 9SM OVC014 M09/M15 A3022 RMK AO1 SLP279
SPECI CYNL 031236Z AUTO 32003KT 9SM OVC015 M09/M15 A3022 RMK AO1 SLP279
METAR CYNL 031200Z AUTO 32004KT 9SM OVC012 M10/M14 A3022 RMK AO1 SLP279
SPECI CYNL 031116Z AUTO 32004KT 9SM BKN013 M11/M15 A3021 RMK AO1 SLP278
METAR CYNL 031100Z AUTO 32003KT 9SM FEW013 M11/M14 A3021 RMK AO1 SLP277
METAR CYNL 031000Z AUTO 34005KT 9SM BKN039 OVC052 M10/M13 A3021 RMK AO1 SLP272
METAR CYNL 030900Z AUTO 34005KT 9SM OVC046 M08/M12 A3020 RMK AO1 SLP268
METAR CYNL 030800Z AUTO 33005KT 9SM OVC042 M07/M12 A3020 RMK AO1 SLP267
METAR CYNL 030700Z AUTO 34006KT 9SM OVC044 M07/M12 A3019 RMK AO1 SLP267
METAR CYNL 030600Z AUTO 35007KT 9SM OVC042 M07/M11 A3019 RMK AO1 SLP267
METAR CYNL 030500Z AUTO 35007KT 9SM OVC044 M06/M11 A3020 RMK AO1 SLP269
METAR CYNL 030400Z AUTO 34007KT 9SM OVC044 M06/M10 A3019 RMK AO1 SLP269
METAR CYNL 030300Z AUTO 35008KT 9SM OVC044 M05/M10 A3018 RMK AO1 SLP266
METAR CYNL 030200Z AUTO 35010KT 9SM OVC044 M05/M09 A3017 RMK AO1 SLP262
METAR CYNL 030100Z AUTO 33007KT 9SM OVC043 M04/M10 A3016 RMK AO1 SLP261
METAR CYNL 030000Z AUTO 33010KT 9SM SCT026 OVC043 M03/M10 A3015 RMK AO1 SLP259
SPECI CYNL 022309Z AUTO 00013KT 9SM SCT027 BKN034 OVC043 M03/M10 A3015 RMK AO1 SLP258
METAR CYNL 022300Z AUTO 34009G16KT 9SM BKN026 OVC042 M03/M09 A3014 RMK AO1 SLP257
SPECI CYNL 022236Z AUTO 33008KT 9SM OVC025 M03/M09 A3014 RMK AO1 SLP256
METAR CYNL 022200Z AUTO 35008KT 9SM OVC024 M03/M09 A3014 RMK AO1 SLP255
METAR CYNL 022100Z AUTO 33009KT 9SM BKN022 OVC032 M03/M09 A3013 RMK AO1 SLP250
METAR CYNL 022000Z AUTO 34007G15KT 9SM OVC019 M05/M10 A3012 RMK AO1 SLP248
METAR CYNL 021900Z AUTO 34009KT 9SM BKN016 OVC020 M05/M10 A3010 RMK AO1 SLP240
METAR CYNL 021800Z AUTO 33008KT 9SM BKN015 OVC019 M05/M10 A3009 RMK AO1 SLP234
SPECI CYNL 021744Z AUTO 33007KT 9SM BKN014 OVC018 M06/M10 A3009 RMK AO1 SLP233
SPECI CYNL 021743Z AUTO 32007KT 9SM SCT013 OVC018 M06/M10 A3009 RMK AO1 SLP233
METAR CYNL 021700Z AUTO 32007KT 9SM OVC012 M07/M11 A3008 RMK AO1 SLP232
METAR CYNL 021600Z AUTO 31007KT 9SM BKN010 OVC012 M08/M11 A3007 RMK AO1 SLP229
SPECI CYNL 021553Z AUTO 31007KT 9SM OVC010 M08/M11 A3007 RMK AO1 SLP230
SPECI CYNL 021552Z AUTO 30007KT 9SM OVC009 M08/M11 A3007 RMK AO1 SLP230
SPECI CYNL 021551Z AUTO 31007KT 9SM OVC010 M08/M11 A3007 RMK AO1 SLP230
METAR CYNL 021500Z AUTO 35007KT 9SM OVC008 M09/M11 A3007 RMK AO1 SLP228
METAR CYNL 021400Z AUTO 01007KT 9SM FEW003 OVC005 M11/M13 A3006 RMK AO1 SLP229
SPECI CYNL 021341Z AUTO 02008KT 8SM SCT003 OVC006 M12/M14 A3006 RMK AO1 SLP228
SPECI CYNL 021333Z AUTO 02008KT 3SM BKN004 BKN006 OVC008 M12/M14 A3006 RMK AO1 SLP228
SPECI CYNL 021330Z AUTO 03009KT 2SM BKN004 OVC006 M12/M15 A3006 RMK AO1 SLP228
SPECI CYNL 021329Z AUTO 03009KT 2 1/2SM OVC005 M12/M15 A3006 RMK AO1 SLP228
SPECI CYNL 021328Z AUTO 03008KT 4SM OVC005 M12/M15 A3006 RMK AO1 SLP228
METAR CYNL 021300Z AUTO 02008KT 3SM OVC004 M13/M15 A3005 RMK AO1 SLP226
SPECI CYNL 021218Z AUTO 02007KT 3SM OVC003 M14/M16 A3003 RMK AO1 SLP222
SPECI CYNL 021215Z AUTO 01009KT 3SM OVC002 M14/M16 A3003 RMK AO1 SLP222
SPECI CYNL 021209Z AUTO 01008KT 2SM OVC002 M14/M16 A3003 RMK AO1 SLP221
SPECI CYNL 021204Z AUTO 01005KT 1 1/2SM OVC002 M14/M16 A3003 RMK AO1 SLP221
SPECI CYNL 021202Z AUTO 01007KT 1SM OVC002 M14/M16 A3003 RMK AO1 SLP220
SPECI CYNL 021201Z AUTO 01007KT 3/4SM OVC002 M14/M16 A3003 RMK AO1 SLP220
METAR CYNL 021200Z AUTO 01007KT 5/8SM OVC002 M14/M16 A3003 RMK AO1 SLP220
SPECI CYNL 021154Z AUTO 02006KT 1SM BKN002 OVC004 M14/M16 A3003 RMK AO1 SLP220
SPECI CYNL 021150Z AUTO 01005KT 3/4SM BKN002 OVC005 M15/M16 A3003 RMK AO1 SLP220
SPECI CYNL 021147Z AUTO 01005KT 1 1/4SM BKN002 BKN005 M15/M17 A3002 RMK AO1 SLP219
SPECI CYNL 021146Z AUTO 01005KT 1 1/4SM BKN003 BKN005 M15/M17 A3002 RMK AO1 SLP219
SPECI CYNL 021143Z AUTO 01005KT 1 3/4SM BKN003 M15/M17 A3002 RMK AO1 SLP219
SPECI CYNL 021142Z AUTO 01005KT 2 1/2SM BKN003 M15/M17 A3002 RMK AO1 SLP219
SPECI CYNL 021135Z AUTO 02005KT 6SM BKN004 M15/M17 A3002 RMK AO1 SLP219
SPECI CYNL 021123Z AUTO 01006KT 9SM FEW004 M15/M17 A3002 RMK AO1 SLP217
METAR CYNL 021100Z AUTO 01007KT 9SM CLR M14/M17 A3001 RMK AO1 SLP215
METAR CYNL 021000Z AUTO 01006KT 9SM CLR M13/M17 A2999 RMK AO1 SLP206
METAR CYNL 020900Z AUTO 01005KT 9SM CLR M12/M16 A2998 RMK AO1 SLP200
METAR CYNL 020800Z AUTO 04003KT 9SM CLR M10/M15 A2996 RMK AO1 PRESRR SLP192
METAR CYNL 020700Z AUTO 04005KT 9SM CLR M08/M13 A2994 RMK AO1 SLP181
METAR CYNL 020600Z AUTO 04004KT 9SM CLR M07/M12 A2992 RMK AO1 SLP176
METAR CYNL 020500Z AUTO 06004KT 9SM CLR M07/M10 A2991 RMK AO1 SLP172
SPECI CYNL 020403Z AUTO 04005KT 9SM FEW007 SCT056 M07/M09 A2990 RMK AO1 SLP169
METAR CYNL 020400Z AUTO 04004KT 9SM SCT056 M07/M09 A2990 RMK AO1 SLP168
METAR CYNL 020300Z AUTO 06005KT 9SM FEW025 OVC037 M06/M09 A2988 RMK AO1 SLP164
SPECI CYNL 020245Z AUTO 07007KT 9SM FEW019 SCT025 OVC036 M06/M09 A2988 RMK AO1 SLP162
SPECI CYNL 020240Z AUTO 07007KT 9SM FEW013 SCT019 BKN025 M06/M09 A2988 RMK AO1 SLP162
SPECI CYNL 020236Z AUTO 06007KT 9SM FEW013 SCT018 OVC035 M06/M09 A2988 RMK AO1 SLP161
METAR CYNL 020200Z AUTO 07006KT 8SM OVC015 M06/M09 A2987 RMK AO1 SLP158
SPECI CYNL 020159Z AUTO 07007KT 8SM OVC015 M06/M09 A2986 RMK AO1 SLP157
SPECI CYNL 020154Z AUTO 07008KT 9SM OVC014 M06/M09 A2986 RMK AO1 SLP156
SPECI CYNL 020150Z AUTO 07008KT 9SM OVC015 M06/M09 A2986 RMK AO1 SLP156
METAR CYNL 020100Z AUTO 08006KT 9SM OVC014 M06/M09 A2985 RMK AO1 SLP151
SPECI CYNL 020044Z AUTO 09005KT 9SM BKN014 OVC018 M06/M09 A2984 RMK AO1 SLP150
SPECI CYNL 020041Z AUTO 09008KT 9SM BKN015 OVC058 M06/M09 A2984 RMK AO1 SLP150
SPECI CYNL 020040Z AUTO 08008KT 9SM BKN014 BKN018 OVC058 M06/M09 A2984 RMK AO1 SLP150
METAR CYNL 020000Z AUTO 08007KT 9SM BKN017 OVC056 M06/M10 A2983 RMK AO1 SLP144
METAR CYNL 012300Z AUTO 09009KT 9SM BKN017 M06/M10 A2981 RMK AO1 SLP140
SPECI CYNL 012215Z AUTO 05010KT 9SM OVC015 M06/M10 A2980 RMK AO1 SLP135
SPECI CYNL 012202Z AUTO 05011KT 9SM OVC014 M06/M10 A2980 RMK AO1 SLP134
METAR CYNL 012200Z AUTO 07009KT 9SM OVC015 M06/M10 A2980 RMK AO1 SLP134
SPECI CYNL 012158Z AUTO 07008KT 9SM OVC015 M06/M10 A2980 RMK AO1 SLP133
SPECI CYNL 012148Z AUTO 07009KT 6SM BKN014 OVC018 M06/M10 A2980 RMK AO1 SLP132
SPECI CYNL 012103Z AUTO 08006KT 9SM OVC015 M06/M10 A2979 RMK AO1 SLP130
SPECI CYNL 012102Z AUTO 09006KT 9SM BKN014 OVC017 M06/M10 A2979 RMK AO1 SLP130
SPECI CYNL 012101Z AUTO 09008KT 9SM OVC015 M06/M10 A2979 RMK AO1 SLP130
METAR CYNL 012100Z AUTO 09008KT 9SM OVC014 M06/M10 A2979 RMK AO1 SLP130
SPECI CYNL 012027Z AUTO 09007KT 9SM BKN014 OVC027 M06/M10 A2978 RMK AO1 PRESRR SLP126
SPECI CYNL 012024Z AUTO 09008KT 9SM BKN015 OVC027 M06/M11 A2978 RMK AO1 PRESRR SLP126
METAR CYNL 012000Z AUTO 08009KT 9SM BKN013 BKN017 OVC027 M06/M10 A2977 RMK AO1 PRESRR SLP123
METAR CYNL 011900Z AUTO 10008KT 8SM BKN012 OVC014 M07/M11 A2975 RMK AO1 SLP116
METAR CYNL 011800Z AUTO 07011KT 9SM OVC010 M08/M11 A2974 RMK AO1 SLP112
SPECI CYNL 011758Z AUTO 07010KT 7SM OVC010 M08/M11 A2974 RMK AO1 SLP111
SPECI CYNL 011756Z AUTO 07011KT 2 1/2SM OVC010 M08/M11 A2974 RMK AO1 PRESRR SLP110
METAR CYNL 011700Z AUTO 08011KT 9SM OVC010 M08/M11 A2972 RMK AO1 PRESRR SLP105
SPECI CYNL 011648Z AUTO 08010KT 9SM OVC010 M08/M11 A2972 RMK AO1 SLP104
SPECI CYNL 011646Z AUTO 08010KT 2 1/2SM OVC010 M08/M11 A2972 RMK AO1 SLP104
SPECI CYNL 011602Z AUTO 09011KT 9SM FEW003 BKN010 BKN013 M08/M11 A2970 RMK AO1 SLP098
METAR CYNL 011600Z AUTO 09009KT 9SM BKN010 BKN013 OVC018 M08/M11 A2970 RMK AO1 SLP097
SPECI CYNL 011530Z AUTO 08007KT 9SM BKN011 OVC019 M08/M11 A2969 RMK AO1 SLP093
SPECI CYNL 011523Z AUTO 09009KT 9SM SCT011 OVC019 M08/M11 A2969 RMK AO1 SLP093
METAR CYNL 011500Z AUTO 08011KT 9SM BKN010 OVC032 M09/M11 A2968 RMK AO1 SLP091
SPECI CYNL 011454Z AUTO 08008KT 9SM SCT010 BKN013 OVC032 M08/M11 A2968 RMK AO1 SLP091
SPECI CYNL 011416Z AUTO 07011KT 6SM FEW009 SCT012 OVC033 M09/M11 A2967 RMK AO1 SLP088
SPECI CYNL 011408Z AUTO 07010KT 3SM FEW008 BKN011 BKN014 M08/M11 A2967 RMK AO1 SLP087
SPECI CYNL 011407Z AUTO 06010KT 2 1/2SM FEW008 BKN011 BKN014 M08/M11 A2967 RMK AO1 SLP087
SPECI CYNL 011402Z AUTO 08008KT 2SM VV011 M08/M11 A2967 RMK AO1 SLP087
METAR CYNL 011400Z AUTO 07009KT 1 3/4SM VV011 M08/M11 A2967 RMK AO1 SLP086
SPECI CYNL 011355Z AUTO 09007KT 2SM VV012 M08/M11 A2967 RMK AO1 SLP085
SPECI CYNL 011347Z AUTO 09009KT 1 1/2SM VV012 M08/M11 A2966 RMK AO1 SLP084
SPECI CYNL 011339Z AUTO 09008KT 1 1/4SM VV014 M08/M11 A2966 RMK AO1 SLP083
SPECI CYNL 011335Z AUTO 09009G15KT 1 1/4SM VV016 M08/M11 A2966 RMK AO1 SLP082
SPECI CYNL 011330Z AUTO 09010G15KT 1 3/4SM VV016 M09/M11 A2965 RMK AO1 SLP081
SPECI CYNL 011326Z AUTO 09008KT 2 1/2SM SCT009 BKN012 OVC016 M08/M11 A2965 RMK AO1 SLP081
SPECI CYNL 011325Z AUTO 09008KT 3SM SCT009 OVC012 M08/M11 A2965 RMK AO1 SLP081
SPECI CYNL 011318Z AUTO 09008G16KT 5SM OVC010 M08/M11 A2965 RMK AO1 SLP080
METAR CYNL 011300Z AUTO 09009KT 9SM OVC009 M08/M10 A2965 RMK AO1 SLP078
METAR CYNL 011200Z AUTO 09009KT 9SM OVC007 M08/M10 A2963 RMK AO1 PRESRR SLP072
METAR CYNL 011100Z AUTO 10010KT 9SM OVC006 M07/M09 A2961 RMK AO1 SLP062
METAR CYNL 011000Z AUTO 09008KT 7SM OVC005 M07/M08 A2959 RMK AO1 PRESRR SLP056
SPECI CYNL 010923Z AUTO 08011KT 4SM OVC005 M06/M07 A2957 RMK AO1 SLP048
SPECI CYNL 010903Z AUTO 08007KT 3SM OVC004 M06/M07 A2957 RMK AO1 SLP047
SPECI CYNL 010902Z AUTO 08009KT 2 1/2SM OVC004 M06/M07 A2957 RMK AO1 SLP047
METAR CYNL 010900Z AUTO 08009KT 3SM OVC004 M06/M07 A2957 RMK AO1 SLP047
SPECI CYNL 010859Z AUTO 08009KT 3SM OVC004 M06/M07 A2957 RMK AO1 SLP047
SPECI CYNL 010849Z AUTO 08009KT 2 1/2SM OVC004 M06/M07 A2957 RMK AO1 SLP047
SPECI CYNL 010848Z AUTO 09008KT 3SM OVC004 M06/M07 A2957 RMK AO1 SLP047
SPECI CYNL 010816Z AUTO 08008KT 2SM OVC004 M05/M06 A2956 RMK AO1 SLP044
METAR CYNL 010800Z AUTO 09008KT 2 1/2SM OVC005 M05/M06 A2955 RMK AO1 SLP042
SPECI CYNL 010748Z AUTO 08008KT 2 1/2SM OVC005 M05/M06 A2956 RMK AO1 SLP042
SPECI CYNL 010746Z AUTO 08008KT 3SM OVC005 M05/M06 A2956 RMK AO1 SLP042
SPECI CYNL 010745Z AUTO 08008KT 2 1/2SM OVC005 M05/M06 A2956 RMK AO1 SLP042
SPECI CYNL 010744Z AUTO 08008KT 3SM OVC005 M05/M06 A2955 RMK AO1 SLP042
SPECI CYNL 010743Z AUTO 08008KT 2 1/2SM OVC005 M05/M06 A2955 RMK AO1 SLP042
SPECI CYNL 010738Z AUTO 08007KT 3SM OVC005 M05/M05 A2955 RMK AO1 SLP041
SPECI CYNL 010727Z AUTO 08010KT 2 1/2SM OVC005 M04/M05 A2955 RMK AO1 SLP040
SPECI CYNL 010713Z AUTO 09007KT 3SM OVC005 M04/M05 A2955 RMK AO1 SLP039
METAR CYNL 010700Z AUTO 08007KT 2 1/2SM BKN006 OVC012 M04/M05 A2955 RMK AO1 SLP039
SPECI CYNL 010648Z AUTO 08008KT 2SM BKN006 OVC013 M04/M05 A2955 RMK AO1 SLP039
SPECI CYNL 010639Z AUTO 08008KT 2SM FEW005 OVC013 M04/M05 A2955 RMK AO1 SLP040
SPECI CYNL 010638Z AUTO 08007KT 1 3/4SM FEW007 OVC013 M04/M05 A2955 RMK AO1 SLP040
SPECI CYNL 010637Z AUTO 08008KT 2SM FEW007 OVC013 M04/M05 A2955 RMK AO1 SLP039
SPECI CYNL 010631Z AUTO 08008KT 1 1/2SM FEW007 OVC014 M04/M05 A2955 RMK AO1 SLP039
SPECI CYNL 010627Z AUTO 08007KT 1 1/2SM OVC014 M04/M05 A2955 RMK AO1 SLP039
SPECI CYNL 010614Z AUTO 08008KT 1 1/4SM VV014 M04/M05 A2954 RMK AO1 SLP037
SPECI CYNL 010613Z AUTO 08009KT 1 1/4SM VV015 M04/M05 A2954 RMK AO1 SLP037
SPECI CYNL 010611Z AUTO 08008KT 1 1/2SM VV015 M04/M05 A2954 RMK AO1 SLP037
SPECI CYNL 010609Z AUTO 08009KT 1 3/4SM OVC014 M04/M05 A2954 RMK AO1 SLP037
SPECI CYNL 010605Z AUTO 09008KT 2SM OVC014 M04/M05 A2954 RMK AO1 SLP037
METAR CYNL 010600Z AUTO 08009KT 2SM OVC015 M04/M05 A2954 RMK AO1 SLP037
SPECI CYNL 010537Z AUTO 08008KT 2SM SCT009 OVC016 M04/M05 A2954 RMK AO1 SLP037
SPECI CYNL 010531Z AUTO 08008KT 1 3/4SM SCT009 OVC016 M04/M05 A2954 RMK AO1 SLP036
SPECI CYNL 010526Z AUTO 09010KT 1 1/2SM BKN009 OVC016 M04/M05 A2954 RMK AO1 SLP035
SPECI CYNL 010523Z AUTO 08009KT 1 1/2SM VV011 M04/M05 A2954 RMK AO1 SLP035
SPECI CYNL 010521Z AUTO 09010KT 1 1/4SM VV010 M04/M05 A2954 RMK AO1 SLP035
SPECI CYNL 010503Z AUTO 08010KT 1 1/4SM VV009 M04/M05 A2953 RMK AO1 SLP034
SPECI CYNL 010501Z AUTO 08009KT 1 1/2SM VV009 M04/M05 A2953 RMK AO1 SLP034
METAR CYNL 010500Z AUTO 09010KT 1 1/2SM VV010 M04/M05 A2953 RMK AO1 SLP033
SPECI CYNL 010456Z AUTO 09010KT 1 3/4SM VV011 M04/M05 A2953 RMK AO1 SLP033
SPECI CYNL 010444Z AUTO 09009G16KT 2SM VV014 M04/M05 A2953 RMK AO1 SLP031
SPECI CYNL 010428Z AUTO 09010KT 2SM SCT008 OVC015 M04/M05 A2953 RMK AO1 SLP031
SPECI CYNL 010425Z AUTO 09011KT 1 1/2SM BKN008 OVC015 M04/M05 A2952 RMK AO1 SLP031
SPECI CYNL 010418Z AUTO 09010G16KT 1 1/4SM VV009 M04/M05 A2952 RMK AO1 SLP030
SPECI CYNL 010411Z AUTO 09010G17KT 1 1/4SM VV010 M04/M05 A2952 RMK AO1 SLP030
SPECI CYNL 010403Z AUTO 09013KT 1 1/4SM VV008 M04/M05 A2952 RMK AO1 SLP030
METAR CYNL 010400Z AUTO 09013G18KT 1 1/2SM VV009 M04/M05 A2952 RMK AO1 SLP030
SPECI CYNL 010351Z AUTO 09012G18KT 1 3/4SM VV009 M04/M05 A2952 RMK AO1 SLP029
SPECI CYNL 010350Z AUTO 09012G18KT 2SM VV009 M04/M05 A2952 RMK AO1 SLP029
SPECI CYNL 010347Z AUTO 09014KT 2SM VV010 M03/M05 A2952 RMK AO1 SLP029
SPECI CYNL 010346Z AUTO 10012G18KT 2SM VV009 M03/M05 A2952 RMK AO1 SLP029
SPECI CYNL 010342Z AUTO 09011G17KT 2SM VV012 M03/M05 A2952 RMK AO1 SLP029
SPECI CYNL 010337Z AUTO 09012KT 1 1/2SM VV010 M03/M05 A2952 RMK AO1 SLP029
SPECI CYNL 010336Z AUTO 09013KT 1 1/2SM VV009 M03/M05 A2952 RMK AO1 SLP028
SPECI CYNL 010330Z AUTO 09012G18KT 1 1/4SM VV008 M03/M05 A2951 RMK AO1 SLP028
SPECI CYNL 010323Z AUTO 09013KT 1 1/4SM VV014 M03/M05 A2952 RMK AO1 SLP029
SPECI CYNL 010317Z AUTO 09011G19KT 1 1/4SM VV015 M03/M05 A2951 RMK AO1 SLP027
SPECI CYNL 010313Z AUTO 09015KT 1 1/4SM VV010 M03/M05 A2951 RMK AO1 SLP027
SPECI CYNL 010305Z AUTO 09012G17KT 1SM VV009 M03/M05 A2951 RMK AO1 SLP027
METAR CYNL 010300Z AUTO 09012G20KT 1 1/4SM VV010 M03/M05 A2951 RMK AO1 SLP026
SPECI CYNL 010251Z AUTO 09012G19KT 1SM VV010 M03/M05 A2951 RMK AO1 SLP026
SPECI CYNL 010244Z AUTO 09013G18KT 1SM VV009 M03/M05 A2951 RMK AO1 SLP026
SPECI CYNL 010232Z AUTO 09014KT 1SM VV010 M03/M04 A2951 RMK AO1 SLP026
SPECI CYNL 010231Z AUTO 09015KT 3/4SM VV010 M03/M04 A2951 RMK AO1 SLP025
SPECI CYNL 010223Z AUTO 09012G19KT 1SM VV009 M03/M04 A2951 RMK AO1 SLP025
SPECI CYNL 010212Z AUTO 09012G20KT 1SM VV011 M03/M04 A2951 RMK AO1 SLP024
SPECI CYNL 010205Z AUTO 09015KT 3/4SM VV010 M03/M04 A2950 RMK AO1 SLP024
SPECI CYNL 010203Z AUTO 09012G18KT 5/8SM VV010 M03/M04 A2950 RMK AO1 SLP024
METAR CYNL 010200Z AUTO 09013KT 3/4SM VV012 M03/M04 A2950 RMK AO1 SLP024
SPECI CYNL 010159Z AUTO 09014KT 3/4SM VV012 M03/M04 A2950 RMK AO1 SLP023
SPECI CYNL 010156Z AUTO 09012G18KT 1SM VV012 M03/M03 A2950 RMK AO1 SLP022
SPECI CYNL 010150Z AUTO 09013G19KT 3/4SM VV011 M02/M03 A2950 RMK AO1 SLP022
SPECI CYNL 010146Z AUTO 09013G19KT 1SM VV012 M02/M03 A2950 RMK AO1 SLP022
SPECI CYNL 010135Z AUTO 10012G18KT 1 1/4SM OVC006 M01/M02 A2950 RMK AO1 SLP019
SPECI CYNL 010113Z AUTO 10014KT 1 1/2SM BKN005 BKN010 OVC012 M01/M02 A2950 RMK AO1 SLP019
SPECI CYNL 010111Z AUTO 10012KT 1 1/4SM BKN005 OVC010 M01/M02 A2950 RMK AO1 SLP019
SPECI CYNL 010103Z AUTO 10011KT 1 3/4SM BKN005 BKN010 OVC013 M01/M02 A2950 RMK AO1 SLP018
METAR CYNL 010100Z AUTO 10011G17KT 2SM BKN005 BKN010 OVC013 M01/M02 A2950 RMK AO1 SLP018
SPECI CYNL 010055Z AUTO 10012G17KT 2SM BKN005 OVC011 M01/M01 A2950 RMK AO1 SLP021
SPECI CYNL 010054Z AUTO 10012G17KT 1 3/4SM BKN005 BKN010 OVC013 M01/M01 A2950 RMK AO1 SLP021
SPECI CYNL 010052Z AUTO 10013KT 1 1/2SM SCT005 BKN010 OVC013 M01/M01 A2950 RMK AO1 SLP020
SPECI CYNL 010047Z AUTO 11011KT 1 1/4SM SCT005 OVC011 M01/M01 A2950 RMK AO1 SLP020
SPECI CYNL 010046Z AUTO 11011KT 1 1/4SM SCT005 BKN009 OVC012 M01/M01 A2950 RMK AO1 SLP020
SPECI CYNL 010038Z AUTO 10011KT 1 1/2SM SCT004 BKN007 OVC011 M01/M01 A2950 RMK AO1 SLP021
SPECI CYNL 010030Z AUTO 11010G16KT 1 1/4SM FEW004 BKN007 OVC011 M00/M01 A2950 RMK AO1 SLP021
SPECI CYNL 010028Z AUTO 11012KT 1 3/4SM FEW005 BKN007 OVC010 M00/M01 A2950 RMK AO1 SLP021
SPECI CYNL 010025Z AUTO 11013KT 1 1/2SM VV010 M00/M01 A2950 RMK AO1 SLP022
SPECI CYNL 010022Z AUTO 11012KT 1SM VV009 M00/M01 A2950 RMK AO1 SLP022
SPECI CYNL 010020Z AUTO 11010G15KT 3/4SM VV008 M00/M01 A2950 RMK AO1 SLP022
SPECI CYNL 010015Z AUTO 11011KT 5/8SM VV008 M00/M01 A2950 RMK AO1 SLP023
SPECI CYNL 010014Z AUTO 11011KT 3/4SM VV008 M00/M01 A2950 RMK AO1 SLP023
SPECI CYNL 010010Z AUTO 11010G16KT 1SM VV007 M00/M01 A2950 RMK AO1 SLP023
SPECI CYNL 010001Z AUTO 11014G20KT 5/8SM VV008 M00/M01 A2951 RMK AO1 SLP025
METAR CYNL 010000Z AUTO 12012G20KT 3/4SM VV009 M00/M01 A2951 RMK AO1 SLP025
SPECI CYNL 302359Z AUTO 12012G20KT 3/4SM VV009 M00/M01 A2951 RMK AO1 SLP027
SPECI CYNL 302356Z AUTO 12012G18KT 1SM VV009 M00/M01 A2951 RMK AO1 PRESFR SLP029
SPECI CYNL 302354Z AUTO 13013G18KT 3/4SM BKN007 OVC011 M00/M01 A2951 RMK AO1 PRESFR SLP029
SPECI CYNL 302352Z AUTO 12013KT 1 1/4SM BKN007 BKN010 OVC012 M00/M01 A2951 RMK AO1 PRESFR SLP029
SPECI CYNL 302344Z AUTO 12012G17KT 1 1/2SM BKN007 OVC009 M00/M01 A2951 RMK AO1 PRESFR SLP029
SPECI CYNL 302342Z AUTO 11012KT 1SM BKN007 OVC009 M00/M01 A2951 RMK AO1 PRESFR SLP029
SPECI CYNL 302324Z AUTO 12013G20KT 5/8SM SCT006 BKN009 OVC011 M00/M01 A2952 RMK AO1 PRESFR SLP033
SPECI CYNL 302323Z AUTO 12012G20KT 3/4SM BKN006 OVC011 M00/M01 A2952 RMK AO1 PRESFR SLP033
SPECI CYNL 302320Z AUTO 13015G20KT 1 1/4SM BKN006 OVC010 M00/M02 A2952 RMK AO1 PRESFR SLP033
SPECI CYNL 302315Z AUTO 12013G19KT 1 3/4SM SCT006 BKN009 OVC011 M01/M02 A2952 RMK AO1 PRESFR SLP031
SPECI CYNL 302314Z AUTO 12013G19KT 2SM SCT006 BKN009 OVC011 M01/M02 A2952 RMK AO1 PRESFR SLP031
SPECI CYNL 302313Z AUTO 12013G19KT 2SM SCT006 OVC010 M01/M02 A2952 RMK AO1 PRESFR SLP031
SPECI CYNL 302312Z AUTO 12013G19KT 1 3/4SM SCT006 OVC010 M01/M02 A2952 RMK AO1 PRESFR SLP031
SPECI CYNL 302311Z AUTO 12014G19KT 1 3/4SM SCT006 BKN009 OVC011 M01/M02 A2952 RMK AO1 PRESFR SLP031
SPECI CYNL 302308Z AUTO 12014KT 1 1/2SM SCT006 OVC010 M01/M02 A2952 RMK AO1 PRESFR SLP032
SPECI CYNL 302307Z AUTO 12014G19KT 1 1/4SM SCT006 OVC010 M01/M02 A2952 RMK AO1 PRESFR SLP032
SPECI CYNL 302305Z AUTO 12014G21KT 1SM SCT006 BKN009 OVC011 M01/M02 A2952 RMK AO1 PRESFR SLP033
SPECI CYNL 302304Z AUTO 12014G21KT 1 1/4SM SCT006 OVC010 M01/M02 A2952 RMK AO1 PRESFR SLP033
METAR CYNL 302300Z AUTO 12011G21KT 1 1/4SM SCT006 BKN009 OVC011 M01/M02 A2953 RMK AO1 PRESFR SLP035
SPECI CYNL 302250Z AUTO 12010G19KT 1SM SCT006 BKN009 OVC011 M01/M02 A2954 RMK AO1 SLP038
SPECI CYNL 302249Z AUTO 12012G19KT 1SM VV010 M01/M02 A2954 RMK AO1 SLP038
SPECI CYNL 302248Z AUTO 12014G19KT 1SM VV009 M01/M02 A2954 RMK AO1 SLP038
SPECI CYNL 302243Z AUTO 12014KT 1SM VV010 M01/M02 A2953 RMK AO1 SLP037
SPECI CYNL 302241Z AUTO 12012KT 1SM VV009 M01/M02 A2953 RMK AO1 SLP038
SPECI CYNL 302240Z AUTO 12012KT 3/4SM VV008 M01/M02 A2954 RMK AO1 SLP038
METAR CYNL 302200Z AUTO ///// 3/8SM VV006 M01/M02 A2955 RMK AO1 SLP044
SPECI CYNL 302130Z AUTO ///// 1/4SM VV005 M02/M03 A2956 RMK AO1 SLP049
SPECI CYNL 302128Z AUTO ///// 1/4SM VV004 M02/M03 A2956 RMK AO1 SLP049
METAR CYNL 302100Z AUTO 11012G19KT 3/8SM VV006 M02/M03 A2956 RMK AO1 SLP049
SPECI CYNL 302009Z AUTO ///// 1/4SM VV005 M02/M03 A2958 RMK AO1 PRESFR SLP057
SPECI CYNL 302008Z AUTO ///// 1/4SM VV004 M02/M03 A2958 RMK AO1 PRESFR SLP057
SPECI CYNL 302003Z AUTO ///// 1/4SM VV005 M02/M03 A2958 RMK AO1 PRESFR SLP058
METAR CYNL 302000Z AUTO ///// 1/8SM VV005 M02/M03 A2958 RMK AO1 PRESFR SLP059
SPECI CYNL 301958Z AUTO ///// 1/8SM VV005 M02/M03 A2958 RMK AO1 PRESFR SLP059
SPECI CYNL 301950Z AUTO ///// 1/4SM VV005 M02/M03 A2959 RMK AO1 PRESFR SLP060
SPECI CYNL 301948Z AUTO ///// 1/8SM VV005 M02/M03 A2959 RMK AO1 PRESFR SLP061
SPECI CYNL 301939Z AUTO ///// 1/8SM VV004 M02/M03 A2959 RMK AO1 PRESFR SLP062
SPECI CYNL 301937Z AUTO 11012KT 1/4SM VV004 M02/M03 A2959 RMK AO1 PRESFR SLP063
SPECI CYNL 301925Z AUTO 11011KT 1/4SM VV005 M02/M03 A2960 RMK AO1 PRESFR SLP063
SPECI CYNL 301922Z AUTO 11011G18KT 1/8SM VV005 M02/M03 A2960 RMK AO1 PRESFR SLP064
METAR CYNL 301900Z AUTO 11014G19KT 1/4SM VV005 M02/M04 A2960 RMK AO1 PRESFR SLP067
SPECI CYNL 301858Z AUTO 11013KT 1/4SM VV005 M03/M04 A2961 RMK AO1 PRESFR SLP067
SPECI CYNL 301855Z AUTO 11013KT 1/4SM VV004 M03/M04 A2961 RMK AO1 PRESFR SLP068
SPECI CYNL 301839Z AUTO 12013G24KT 1/8SM VV004 M03/M04 A2962 RMK AO1 PRESFR SLP073
SPECI CYNL 301837Z AUTO 12012G24KT 1/8SM VV005 M03/M04 A2963 RMK AO1 PRESFR SLP074
SPECI CYNL 301830Z AUTO 12017G24KT 1/4SM VV005 M02/M04 A2963 RMK AO1 PRESFR SLP075
SPECI CYNL 301829Z AUTO 12017G24KT 1/8SM VV005 M02/M04 A2963 RMK AO1 PRESFR SLP075
METAR CYNL 301800Z AUTO 12017G24KT 1/4SM VV006 M03/M05 A2965 RMK AO1 PRESFR SLP081
METAR CYNL 301700Z AUTO 11014G22KT 3/8SM VV007 M03/M04 A2969 RMK AO1 PRESFR SLP091
SPECI CYNL 301627Z AUTO 12015G21KT 5/8SM VV009 M03/M04 A2972 RMK AO1 PRESFR SLP099
SPECI CYNL 301626Z AUTO 12015G21KT 3/4SM OVC009 M03/M04 A2972 RMK AO1 PRESFR SLP099
SPECI CYNL 301625Z AUTO 12017KT 5/8SM OVC009 M03/M04 A2972 RMK AO1 PRESFR SLP100
SPECI CYNL 301622Z AUTO 12014G21KT 3/4SM VV010 M03/M04 A2972 RMK AO1 PRESFR SLP100
SPECI CYNL 301615Z AUTO 11013G19KT 5/8SM VV009 M03/M04 A2973 RMK AO1 PRESFR SLP102
SPECI CYNL 301609Z AUTO 12016G23KT 3/4SM BKN009 OVC011 M03/M05 A2973 RMK AO1 PRESFR SLP105
SPECI CYNL 301607Z AUTO 11014G23KT 1SM OVC009 M03/M05 A2974 RMK AO1 PRESFR SLP106
SPECI CYNL 301605Z AUTO 12013G23KT 1 1/4SM FEW008 BKN010 OVC011 M03/M05 A2974 RMK AO1 PRESFR SLP107
METAR CYNL 301600Z AUTO 12016G23KT 1 1/4SM VV009 M03/M05 A2974 RMK AO1 PRESFR SLP108
SPECI CYNL 301554Z AUTO 12013G23KT 1SM VV009 M03/M05 A2975 RMK AO1 PRESFR SLP108
SPECI CYNL 301546Z AUTO 12013G20KT 1SM VV010 M03/M05 A2976 RMK AO1 PRESFR SLP113
SPECI CYNL 301545Z AUTO 13014G20KT 1SM VV009 M03/M05 A2976 RMK AO1 PRESFR SLP113
SPECI CYNL 301538Z AUTO 12012G18KT 1SM VV011 M03/M05 A2976 RMK AO1 PRESFR SLP115
SPECI CYNL 301533Z AUTO 12014KT 3/4SM VV011 M03/M05 A2978 RMK AO1 PRESFR SLP118
SPECI CYNL 301527Z AUTO 12011G19KT 1 1/4SM VV010 M03/M05 A2978 RMK AO1 PRESFR SLP121
SPECI CYNL 301524Z AUTO 13012G19KT 1SM VV009 M03/M06 A2979 RMK AO1 PRESFR SLP122
SPECI CYNL 301521Z AUTO 13014G19KT 3/4SM VV009 M03/M06 A2979 RMK AO1 PRESFR SLP124
SPECI CYNL 301511Z AUTO 13012KT 1SM VV009 M03/M06 A2980 RMK AO1 PRESFR SLP128
SPECI CYNL 301510Z AUTO 12013KT 3/4SM VV009 M03/M06 A2980 RMK AO1 PRESFR SLP129
SPECI CYNL 301507Z AUTO 13013KT 3/4SM VV011 M03/M06 A2981 RMK AO1 PRESFR SLP129
SPECI CYNL 301503Z AUTO 13014KT 1 1/4SM VV012 M03/M06 A2981 RMK AO1 PRESFR SLP130
METAR CYNL 301500Z AUTO 13012KT 1 1/2SM VV011 M03/M06 A2981 RMK AO1 PRESFR SLP131
SPECI CYNL 301458Z AUTO 12012G17KT 1 1/2SM VV010 M03/M06 A2981 RMK AO1 PRESFR SLP130
SPECI CYNL 301454Z AUTO 12011G17KT 1SM VV009 M03/M06 A2982 RMK AO1 PRESFR SLP131
SPECI CYNL 301452Z AUTO 13012G17KT 3/4SM VV009 M03/M06 A2982 RMK AO1 PRESFR SLP132
SPECI CYNL 301444Z AUTO 13011KT 1SM VV008 M03/M06 A2983 RMK AO1 PRESFR SLP134
SPECI CYNL 301441Z AUTO 14009G16KT 3/4SM VV008 M03/M06 A2983 RMK AO1 PRESFR SLP135
SPECI CYNL 301438Z AUTO 13012KT 5/8SM VV009 M03/M06 A2983 RMK AO1 PRESFR SLP136
SPECI CYNL 301437Z AUTO 14011KT 5/8SM VV010 M03/M06 A2983 RMK AO1 PRESFR SLP137
SPECI CYNL 301436Z AUTO 14011G16KT 3/4SM VV010 M03/M06 A2983 RMK AO1 PRESFR SLP137
SPECI CYNL 301430Z AUTO 13012KT 1 1/4SM VV011 M03/M07 A2984 RMK AO1 PRESFR SLP138
SPECI CYNL 301427Z AUTO 14012G17KT 1 1/2SM VV012 M03/M07 A2984 RMK AO1 PRESFR SLP139
SPECI CYNL 301425Z AUTO 13013KT 1 1/4SM VV013 M03/M08 A2985 RMK AO1 PRESFR SLP140
SPECI CYNL 301424Z AUTO 13012G17KT 1 1/2SM VV014 M03/M08 A2985 RMK AO1 PRESFR SLP141
SPECI CYNL 301423Z AUTO 13012G17KT 1 3/4SM VV015 M03/M08 A2985 RMK AO1 PRESFR SLP141
SPECI CYNL 301422Z AUTO 13013KT 2 1/2SM VV015 M03/M08 A2985 RMK AO1 PRESFR SLP141
SPECI CYNL 301416Z AUTO 14012KT 5SM VV018 M03/M09 A2986 RMK AO1 PRESFR SLP144
METAR CYNL 301400Z AUTO 13010KT 9SM CLR M03/M10 A2987 RMK AO1 PRESFR SLP147
METAR CYNL 301300Z AUTO 11007KT 9SM CLR M05/M10 A2990 RMK AO1 PRESFR SLP159
METAR CYNL 301200Z AUTO 09003KT 9SM CLR M08/M11 A2994 RMK AO1 PRESFR SLP174
METAR CYNL 301100Z AUTO 15003KT 9SM CLR M08/M12 A2996 RMK AO1 SLP182
METAR CYNL 301000Z AUTO 00000KT 9SM FEW140 M09/M12 A2999 RMK AO1 PRESFR SLP191
METAR CYNL 300900Z AUTO 09002KT 9SM CLR M11/M14 A3001 RMK AO1 PRESFR SLP201
METAR CYNL 300800Z AUTO 00000KT 9SM CLR M11/M14 A3003 RMK AO1 SLP210
METAR CYNL 300700Z AUTO 00000KT 9SM CLR M10/M14 A3005 RMK AO1 SLP216
METAR CYNL 300600Z AUTO 24004KT 9SM CLR M07/M11 A3006 RMK AO1 PRESFR SLP217
METAR CYNL 300500Z AUTO 24004KT 9SM CLR M05/M11 A3008 RMK AO1 SLP224
METAR CYNL 300400Z AUTO 25003KT 9SM CLR M04/M10 A3009 RMK AO1 SLP227
METAR CYNL 300300Z AUTO 27004KT 9SM CLR M02/M10 A3009 RMK AO1 SLP226
METAR CYNL 300200Z AUTO 28005KT 9SM CLR 00/M09 A3009 RMK AO1 SLP226
METAR CYNL 300100Z AUTO 30012KT 9SM CLR 01/M10 A3010 RMK AO1 SLP228
METAR CYNL 300000Z AUTO 29013G20KT 9SM CLR 01/M09 A3010 RMK AO1 SLP230
METAR CYNL 292300Z AUTO 28015G21KT 9SM CLR 01/M09 A3010 RMK AO1 SLP230
METAR CYNL 292200Z AUTO 29013G24KT 9SM CLR 01/M09 A3010 RMK AO1 SLP229
METAR CYNL 292100Z AUTO 29012G22KT 9SM CLR 01/M10 A3009 RMK AO1 SLP226
METAR CYNL 292000Z AUTO 31014G22KT 9SM CLR M00/M11 A3007 RMK AO1 SLP222
METAR CYNL 291900Z AUTO 29015G23KT 9SM CLR M02/M12 A3007 RMK AO1 SLP222
METAR CYNL 291800Z AUTO 31015G24KT 9SM CLR M03/M12 A3006 RMK AO1 PRESRR SLP220
METAR CYNL 291700Z AUTO 29013G20KT 9SM CLR M04/M12 A3004 RMK AO1 SLP213
SPECI CYNL 291617Z AUTO 30013G20KT 9SM SCT027 BKN031 M05/M13 A3003 RMK AO1 SLP210
SPECI CYNL 291609Z AUTO 29010G22KT 9SM BKN026 M05/M13 A3003 RMK AO1 SLP209
METAR CYNL 291600Z AUTO 29014G23KT 9SM SCT026 M05/M13 A3002 RMK AO1 SLP208
SPECI CYNL 291507Z AUTO 31013G22KT 9SM SCT025 M06/M13 A3001 RMK AO1 PRESRR SLP203
SPECI CYNL 291503Z AUTO 30014G21KT 9SM BKN025 M06/M13 A3001 RMK AO1 PRESRR SLP202
METAR CYNL 291500Z AUTO 30012G21KT 9SM BKN024 M06/M13 A3000 RMK AO1 PRESRR SLP202
SPECI CYNL 291446Z AUTO 30013G24KT 9SM BKN024 M07/M13 A3000 RMK AO1 SLP201
SPECI CYNL 291444Z AUTO 30014G24KT 9SM BKN025 M07/M13 A3000 RMK AO1 SLP201
METAR CYNL 291400Z AUTO 30014G22KT 9SM OVC021 M08/M13 A2998 RMK AO1 SLP196
METAR CYNL 291300Z AUTO 31011G25KT 9SM OVC023 M08/M14 A2997 RMK AO1 PRESRR SLP190
METAR CYNL 291200Z AUTO 30012G20KT 9SM OVC022 M08/M13 A2994 RMK AO1 SLP182
SPECI CYNL 291147Z AUTO 30012G19KT 9SM OVC024 M09/M13 A2994 RMK AO1 SLP181
SPECI CYNL 291106Z AUTO 29011KT 9SM BKN029 M09/M13 A2992 RMK AO1 SLP176
METAR CYNL 291100Z AUTO 30009G16KT 9SM SCT030 M09/M13 A2992 RMK AO1 SLP175
METAR CYNL 291000Z AUTO 30009G18KT 9SM OVC035 M08/M13 A2991 RMK AO1 SLP171
METAR CYNL 290900Z AUTO 29013G20KT 9SM FEW024 BKN052 M08/M13 A2990 RMK AO1 SLP167
METAR CYNL 290800Z AUTO 30013G21KT 9SM SCT025 BKN050 M07/M12 A2989 RMK AO1 SLP164
METAR CYNL 290700Z AUTO 29011G18KT 9SM FEW017 OVC058 M07/M12 A2989 RMK AO1 SLP162
SPECI CYNL 290646Z AUTO 30010G17KT 9SM FEW011 SCT017 BKN035 M07/M11 A2989 RMK AO1 SLP162
SPECI CYNL 290634Z AUTO 30008KT 5SM FEW008 BKN017 OVC022 M07/M10 A2988 RMK AO1 SLP160
SPECI CYNL 290633Z AUTO 31008KT 4SM VV014 M07/M10 A2988 RMK AO1 SLP160
SPECI CYNL 290631Z AUTO 30007KT 3SM VV016 M07/M10 A2988 RMK AO1 SLP160
SPECI CYNL 290622Z AUTO 30008G15KT 2 1/2SM VV021 M07/M10 A2988 RMK AO1 SLP159
SPECI CYNL 290620Z AUTO 30007G15KT 3SM VV020 M07/M10 A2988 RMK AO1 SLP159
SPECI CYNL 290618Z AUTO 31010G16KT 2 1/2SM VV019 M07/M10 A2988 RMK AO1 SLP159
SPECI CYNL 290606Z AUTO 30009G16KT 3SM VV019 M07/M10 A2988 RMK AO1 SLP158
SPECI CYNL 290601Z AUTO 30010G16KT 2SM VV017 M07/M10 A2988 RMK AO1 SLP158
METAR CYNL 290600Z AUTO 30009G16KT 1 3/4SM VV017 M07/M09 A2988 RMK AO1 SLP158
SPECI CYNL 290559Z AUTO 30009KT 1 1/2SM VV016 M07/M09 A2988 RMK AO1 SLP158
SPECI CYNL 290558Z AUTO 29009KT 1 1/4SM VV015 M07/M10 A2988 RMK AO1 SLP158
SPECI CYNL 290556Z AUTO 30008KT 1 1/4SM VV013 M07/M09 A2988 RMK AO1 SLP158
SPECI CYNL 290552Z AUTO 30008KT 1 1/2SM VV013 M07/M09 A2988 RMK AO1 SLP158
SPECI CYNL 290550Z AUTO 30007KT 1 1/4SM VV014 M07/M09 A2988 RMK AO1 SLP157
SPECI CYNL 290546Z AUTO 31005KT 1 1/4SM VV017 M07/M09 A2988 RMK AO1 SLP157
SPECI CYNL 290544Z AUTO 31007KT 1 3/4SM VV018 M06/M10 A2988 RMK AO1 SLP157
SPECI CYNL 290542Z AUTO 30008G15KT 2 1/2SM VV021 M06/M10 A2988 RMK AO1 SLP157
SPECI CYNL 290539Z AUTO 30007G15KT 3SM VV024 M06/M10 A2988 RMK AO1 SLP156
SPECI CYNL 290534Z AUTO 30009G17KT 5SM VV029 M06/M10 A2988 RMK AO1 SLP156
SPECI CYNL 290531Z AUTO 30009G17KT 4SM VV030 M06/M10 A2987 RMK AO1 SLP156
SPECI CYNL 290528Z AUTO 29010G17KT 3SM VV027 M06/M10 A2987 RMK AO1 SLP156
SPECI CYNL 290527Z AUTO 29010G17KT 2 1/2SM VV025 M06/M10 A2987 RMK AO1 SLP156
SPECI CYNL 290523Z AUTO 29010G17KT 2 1/2SM VV022 M06/M10 A2987 RMK AO1 SLP156
SPECI CYNL 290522Z AUTO 29009G17KT 3SM VV022 M06/M10 A2987 RMK AO1 SLP156
SPECI CYNL 290517Z AUTO 29011G17KT 9SM SCT024 BKN032 OVC038 M06/M10 A2987 RMK AO1 SLP156
SPECI CYNL 290516Z AUTO 29010G19KT 9SM BKN029 OVC038 M06/M10 A2987 RMK AO1 SLP156
SPECI CYNL 290515Z AUTO 30008G19KT 9SM FEW023 BKN030 OVC039 M06/M10 A2987 RMK AO1 SLP156
SPECI CYNL 290514Z AUTO 30008G19KT 9SM BKN029 OVC038 M06/M10 A2987 RMK AO1 SLP156
SPECI CYNL 290513Z AUTO 29009G19KT 9SM BKN030 OVC038 M06/M10 A2987 RMK AO1 SLP156
SPECI CYNL 290512Z AUTO 29009G19KT 9SM BKN029 OVC038 M06/M10 A2987 RMK AO1 SLP156
SPECI CYNL 290509Z AUTO 29009G19KT 9SM FEW023 BKN030 OVC039 M06/M10 A2987 RMK AO1 SLP156
SPECI CYNL 290508Z AUTO 29011G19KT 7SM BKN028 OVC039 M06/M10 A2987 RMK AO1 SLP156
SPECI CYNL 290506Z AUTO 29011G19KT 9SM FEW023 BKN030 BKN039 M06/M10 A2987 RMK AO1 SLP156
METAR CYNL 290500Z AUTO 29008G16KT 7SM FEW018 BKN026 BKN033 M06/M10 A2987 RMK AO1 SLP155
SPECI CYNL 290458Z AUTO 29010G16KT 7SM FEW017 BKN026 BKN033 M06/M10 A2987 RMK AO1 SLP157
SPECI CYNL 290457Z AUTO 29010G16KT 6SM FEW012 SCT023 BKN030 M06/M10 A2987 RMK AO1 SLP157
SPECI CYNL 290452Z AUTO 29009G16KT 6SM FEW012 SCT022 OVC029 M06/M09 A2987 RMK AO1 SLP156
SPECI CYNL 290451Z AUTO 29008G16KT 5SM VV030 M06/M09 A2987 RMK AO1 SLP156
SPECI CYNL 290447Z AUTO 29011G17KT 3SM VV025 M06/M09 A2987 RMK AO1 SLP156
SPECI CYNL 290445Z AUTO 29008G17KT 3SM VV024 M06/M09 A2987 RMK AO1 SLP156
SPECI CYNL 290440Z AUTO 29009G17KT 3SM VV025 M06/M09 A2987 RMK AO1 SLP156
SPECI CYNL 290439Z AUTO 29011G17KT 3SM VV024 M06/M09 A2987 RMK AO1 SLP156
SPECI CYNL 290437Z AUTO 29009G17KT 2SM VV021 M06/M09 A2987 RMK AO1 SLP157
SPECI CYNL 290435Z AUTO 29009G17KT 1 1/2SM VV017 M06/M09 A2987 RMK AO1 SLP157
SPECI CYNL 290434Z AUTO 29010G17KT 1 1/4SM VV016 M06/M09 A2987 RMK AO1 SLP157
SPECI CYNL 290433Z AUTO 30010G17KT 1 1/4SM VV014 M06/M09 A2987 RMK AO1 SLP157
SPECI CYNL 290432Z AUTO 30010G17KT 1 1/2SM VV013 M06/M09 A2987 RMK AO1 SLP157
SPECI CYNL 290430Z AUTO 30009KT 1 1/4SM VV012 M06/M09 A2987 RMK AO1 SLP157
SPECI CYNL 290429Z AUTO 30008KT 1 1/2SM VV012 M06/M09 A2987 RMK AO1 SLP157
SPECI CYNL 290426Z AUTO 30009KT 1 1/4SM VV013 M06/M09 A2987 RMK AO1 SLP156
SPECI CYNL 290423Z AUTO 30009KT 1 1/2SM VV013 M06/M09 A2987 RMK AO1 SLP156
SPECI CYNL 290422Z AUTO 30009KT 1 1/4SM VV013 M06/M09 A2987 RMK AO1 SLP156
SPECI CYNL 290421Z AUTO 30009KT 1 1/2SM VV013 M06/M09 A2987 RMK AO1 SLP156
SPECI CYNL 290420Z AUTO 30010KT 1 1/4SM VV013 M06/M09 A2987 RMK AO1 SLP156
SPECI CYNL 290417Z AUTO 30006KT 1 1/2SM VV012 M06/M09 A2987 RMK AO1 SLP156
SPECI CYNL 290416Z AUTO 30008KT 1 1/4SM VV012 M06/M09 A2987 RMK AO1 SLP156
SPECI CYNL 290415Z AUTO 30009KT 1 1/2SM VV012 M06/M09 A2987 RMK AO1 SLP156
SPECI CYNL 290414Z AUTO 30009G16KT 1 1/4SM VV013 M06/M09 A2987 RMK AO1 SLP156
SPECI CYNL 290413Z AUTO 30010G16KT 1 1/2SM VV014 M06/M09 A2987 RMK AO1 SLP156
SPECI CYNL 290409Z AUTO 30009G16KT 1 3/4SM VV019 M05/M09 A2987 RMK AO1 SLP155
SPECI CYNL 290408Z AUTO 30010G16KT 2 1/2SM VV021 M05/M10 A2987 RMK AO1 SLP155
SPECI CYNL 290406Z AUTO 31009G16KT 4SM VV023 M05/M10 A2987 RMK AO1 SLP155
METAR CYNL 290400Z AUTO 30007G18KT 9SM CLR M05/M10 A2987 RMK AO1 SLP154
METAR CYNL 290300Z AUTO 28010G18KT 9SM FEW039 M04/M14 A2986 RMK AO1 SLP153
METAR CYNL 290200Z AUTO 26012G20KT 9SM BKN056 M04/M15 A2986 RMK AO1 SLP153
METAR CYNL 290100Z AUTO 27012G25KT 9SM BKN056 M04/M15 A2987 RMK AO1 SLP159
METAR CYNL 290000Z AUTO 27016G30KT 9SM SCT058 M04/M15 A2987 RMK AO1 SLP165
METAR CYNL 282300Z AUTO 28014G26KT 9SM BKN058 M04/M16 A2987 RMK AO1 SLP167
METAR CYNL 282200Z AUTO 27014G27KT 9SM SCT064 BKN200 M04/M16 A2987 RMK AO1 SLP168
METAR CYNL 282100Z AUTO 25016G27KT 9SM FEW058 SCT200 M04/M16 A2988 RMK AO1 SLP173
SPECI CYNL 282019Z AUTO 29015G25KT 9SM SCT082 BKN200 M03/M17 A2988 RMK AO1 WSHFT (20)19 SLP174
METAR CYNL 282000Z AUTO 27012G25KT 9SM FEW086 M03/M17 A2989 RMK AO1 SLP174
METAR CYNL 281900Z AUTO 27014G26KT 9SM FEW170 M04/M18 A2990 RMK AO1 SLP178
METAR CYNL 281800Z AUTO 25016G31KT 9SM FEW170 M04/M17 A2991 RMK AO1 PRESFR SLP184
METAR CYNL 281700Z AUTO 26018G27KT 9SM FEW050 M05/M18 A2994 RMK AO1 PRESFR SLP191
METAR CYNL 281600Z AUTO 23016G22KT 9SM CLR M07/M18 A2996 RMK AO1 PRESFR SLP199
METAR CYNL 281500Z AUTO 26012G23KT 9SM CLR M08/M18 A2998 RMK AO1 PRESFR SLP206
METAR CYNL 281400Z AUTO 24009G17KT 9SM CLR M11/M19 A3001 RMK AO1 PRESFR SLP217
METAR CYNL 281300Z AUTO 23008KT 9SM CLR M14/M19 A3003 RMK AO1 SLP225
METAR CYNL 281200Z AUTO 25006KT 9SM SCT034 M15/M20 A3004 RMK AO1 SLP229
METAR CYNL 281100Z AUTO 26007KT 9SM FEW032 M16/M21 A3004 RMK AO1 SLP232
METAR CYNL 281000Z AUTO 24004KT 9SM CLR M19/M22 A3005 RMK AO1 SLP238
METAR CYNL 280900Z AUTO 22004KT 9SM CLR M19/M22 A3006 RMK AO1 SLP241
METAR CYNL 280800Z AUTO 24005KT 9SM CLR M18/M22 A3007 RMK AO1 SLP242
METAR CYNL 280700Z AUTO 23004KT 9SM CLR M17/M22 A3007 RMK AO1 SLP242
METAR CYNL 280600Z AUTO 26004KT 9SM CLR M15/M21 A3007 RMK AO1 SLP241
METAR CYNL 280500Z AUTO 27007KT 9SM CLR M14/M21 A3007 RMK AO1 SLP242
METAR CYNL 280400Z AUTO 26005KT 9SM CLR M14/M20 A3008 RMK AO1 SLP243
METAR CYNL 280300Z AUTO 26005KT 9SM CLR M13/M20 A3007 RMK AO1 SLP241
METAR CYNL 280200Z AUTO 29007KT 9SM CLR M11/M20 A3007 RMK AO1 SLP239
METAR CYNL 280100Z AUTO 29010G17KT 9SM CLR M09/M19 A3006 RMK AO1 SLP235
METAR CYNL 280000Z AUTO 29008G17KT 9SM SCT036 M09/M19 A3004 RMK AO1 SLP232
METAR CYNL 272300Z AUTO 28010G19KT 9SM SCT035 M09/M18 A3004 RMK AO1 SLP231
SPECI CYNL 272243Z AUTO 27011G17KT 9SM SCT034 M09/M18 A3003 RMK AO1 WSHFT (22)43 SLP229
SPECI CYNL 272219Z AUTO 28011G18KT 9SM BKN033 M09/M18 A3003 RMK AO1 WSHFT (22)19 SLP229
METAR CYNL 272200Z AUTO 28010G17KT 9SM BKN032 M10/M18 A3002 RMK AO1 SLP228
METAR CYNL 272100Z AUTO 31013G19KT 9SM BKN032 M09/M18 A3000 RMK AO1 SLP220
SPECI CYNL 272040Z AUTO 32010G18KT 9SM BKN030 M09/M18 A2999 RMK AO1 SLP216
SPECI CYNL 272032Z AUTO 29011G21KT 9SM BKN029 M09/M18 A2999 RMK AO1 SLP216
SPECI CYNL 272004Z AUTO 33011G19KT 8SM FEW007 SCT017 M09/M18 A2999 RMK AO1 SLP214
METAR CYNL 272000Z AUTO 30012G19KT 8SM SCT013 BKN130 M09/M17 A2999 RMK AO1 SLP213
SPECI CYNL 271957Z AUTO 31008G19KT 8SM FEW008 SCT020 BKN180 M09/M17 A2999 RMK AO1 SLP212
SPECI CYNL 271955Z AUTO 30008G20KT 9SM FEW008 BKN020 M09/M18 A2998 RMK AO1 SLP212
SPECI CYNL 271953Z AUTO 30013G20KT 6SM FEW008 SCT016 BKN027 M09/M18 A2998 RMK AO1 SLP212
SPECI CYNL 271952Z AUTO 29012G20KT 6SM FEW007 BKN016 M09/M18 A2998 RMK AO1 SLP212
SPECI CYNL 271950Z AUTO 30009G20KT 7SM FEW007 SCT015 BKN027 M09/M18 A2998 RMK AO1 SLP212
SPECI CYNL 271949Z AUTO 31010G20KT 7SM VV009 M10/M18 A2998 RMK AO1 SLP212
SPECI CYNL 271943Z AUTO 29012G20KT 4SM VV014 M10/M18 A2998 RMK AO1 SLP211
SPECI CYNL 271942Z AUTO 29010G20KT 4SM VV016 M10/M18 A2998 RMK AO1 SLP211
METAR CYNL 271900Z AUTO 29010G19KT 9SM BKN031 M10/M19 A2998 RMK AO1 SLP210
SPECI CYNL 271822Z AUTO 30013G21KT 9SM SCT028 BKN200 M10/M19 A2997 RMK AO1 PRESRR SLP205
METAR CYNL 271800Z AUTO 29009G19KT 9SM BKN026 M11/M19 A2996 RMK AO1 PRESRR SLP204
SPECI CYNL 271729Z AUTO 29011G19KT 9SM BKN026 M12/M19 A2995 RMK AO1 PRESRR SLP200
METAR CYNL 271700Z AUTO 32010G20KT 9SM SCT025 M12/M19 A2994 RMK AO1 PRESRR SLP195
METAR CYNL 271600Z AUTO 31009G18KT 9SM CLR M12/M19 A2991 RMK AO1 PRESRR SLP185
METAR CYNL 271500Z AUTO 31010G17KT 9SM FEW017 M13/M19 A2989 RMK AO1 SLP177
METAR CYNL 271400Z AUTO 30007G16KT 9SM FEW014 M15/M19 A2987 RMK AO1 PRESRR SLP171
METAR CYNL 271300Z AUTO 31008KT 9SM CLR M16/M20 A2985 RMK AO1 PRESRR SLP164
SPECI CYNL 271240Z AUTO 31007KT 9SM SCT004 M16/M20 A2984 RMK AO1 PRESRR SLP159
SPECI CYNL 271239Z AUTO 31008KT 9SM SCT004 BKN016 M16/M20 A2984 RMK AO1 PRESRR SLP158
SPECI CYNL 271213Z AUTO 31006KT 9SM VV004 M17/M20 A2983 RMK AO1 PRESRR SLP155
SPECI CYNL 271212Z AUTO 31008KT 9SM SCT004 M17/M20 A2983 RMK AO1 PRESRR SLP155
SPECI CYNL 271211Z AUTO 30008KT 9SM VV004 M17/M20 A2983 RMK AO1 PRESRR SLP154
SPECI CYNL 271202Z AUTO 30006KT 9SM FEW004 M17/M20 A2982 RMK AO1 PRESRR SLP153
METAR CYNL 271200Z AUTO ///// 9SM CLR M17/M20 A2982 RMK AO1 PRESRR SLP152
SPECI CYNL 271145Z AUTO ///// 9SM FEW002 M18/M21 A2981 RMK AO1 PRESRR SLP148
METAR CYNL 271100Z AUTO ///// 9SM CLR M18/M21 A2979 RMK AO1 PRESRR SLP141
SPECI CYNL 271015Z AUTO ///// 9SM SCT003 M17/M20 A2978 RMK AO1 PRESRR SLP133
SPECI CYNL 271009Z AUTO ///// 8SM VV003 M17/M20 A2978 RMK AO1 PRESRR SLP132
SPECI CYNL 271004Z AUTO ///// 9SM FEW002 M17/M20 A2977 RMK AO1 PRESRR SLP131
METAR CYNL 271000Z AUTO ///// 7SM CLR M17/M20 A2977 RMK AO1 PRESRR SLP130
METAR CYNL 270900Z AUTO 30005KT 9SM FEW002 M16/M19 A2974 RMK AO1 PRESRR SLP121
SPECI CYNL 270853Z AUTO 30006KT 9SM FEW002 M16/M19 A2973 RMK AO1 PRESRR SLP119
METAR CYNL 270800Z AUTO 31006KT 9SM CLR M16/M19 A2971 RMK AO1 PRESRR SLP108
SPECI CYNL 270734Z AUTO 31005KT 9SM SCT006 M15/M18 A2970 RMK AO1 PRESRR SLP105
METAR CYNL 270700Z AUTO 32007KT 9SM VV006 M15/M17 A2968 RMK AO1 PRESRR SLP098
SPECI CYNL 270654Z AUTO 32007KT 9SM VV006 M14/M17 A2968 RMK AO1 SLP100
SPECI CYNL 270645Z AUTO 31007KT 9SM SCT006 OVC010 M14/M17 A2967 RMK AO1 SLP099
METAR CYNL 270600Z AUTO 31007KT 9SM FEW004 SCT006 BKN009 M13/M16 A2966 RMK AO1 SLP091
SPECI CYNL 270558Z AUTO 31007KT 9SM FEW004 SCT006 BKN008 M13/M16 A2966 RMK AO1 SLP093
SPECI CYNL 270557Z AUTO 31005KT 9SM FEW004 SCT006 BKN010 M13/M16 A2966 RMK AO1 SLP092
SPECI CYNL 270555Z AUTO 32005KT 9SM FEW004 SCT006 BKN008 M13/M16 A2966 RMK AO1 SLP092
SPECI CYNL 270554Z AUTO 32006KT 9SM FEW004 SCT006 BKN011 M13/M16 A2966 RMK AO1 SLP092
SPECI CYNL 270550Z AUTO 33007KT 7SM VV009 M13/M15 A2965 RMK AO1 SLP091
SPECI CYNL 270534Z AUTO 33005KT 3SM FEW004 SCT011 OVC017 M12/M15 A2965 RMK AO1 SLP090
SPECI CYNL 270533Z AUTO 33005KT 2 1/2SM FEW004 SCT011 OVC017 M12/M15 A2965 RMK AO1 SLP090
SPECI CYNL 270532Z AUTO 32005KT 2SM FEW004 BKN011 OVC016 M12/M15 A2965 RMK AO1 SLP090
SPECI CYNL 270528Z AUTO 33004KT 1 3/4SM FEW005 BKN011 BKN016 M12/M15 A2965 RMK AO1 SLP089
SPECI CYNL 270526Z AUTO 34006KT 2 1/2SM FEW005 BKN011 BKN017 M12/M15 A2965 RMK AO1 SLP089
SPECI CYNL 270519Z AUTO 33007KT 9SM FEW008 BKN011 OVC018 M12/M15 A2964 RMK AO1 SLP088
SPECI CYNL 270509Z AUTO 33007KT 9SM VV010 M12/M15 A2964 RMK AO1 SLP086
SPECI CYNL 270506Z AUTO 33009KT 8SM VV009 M12/M15 A2964 RMK AO1 SLP086
METAR CYNL 270500Z AUTO 33006KT 8SM VV010 M12/M15 A2964 RMK AO1 SLP085
SPECI CYNL 270449Z AUTO 33007KT 9SM BKN013 OVC037 M11/M14 A2964 RMK AO1 PRESRR SLP084
SPECI CYNL 270446Z AUTO 34009KT 9SM SCT013 OVC037 M11/M14 A2964 RMK AO1 PRESRR SLP084
SPECI CYNL 270445Z AUTO 33008KT 9SM BKN013 OVC037 M11/M14 A2964 RMK AO1 PRESRR SLP084
SPECI CYNL 270444Z AUTO 33007KT 9SM SCT012 BKN015 OVC037 M11/M14 A2964 RMK AO1 PRESRR SLP084
SPECI CYNL 270425Z AUTO 31006KT 4SM VV014 M11/M14 A2963 RMK AO1 PRESRR SLP081
SPECI CYNL 270420Z AUTO 32005KT 2SM VV011 M11/M14 A2963 RMK AO1 PRESRR SLP080
SPECI CYNL 270418Z AUTO 31006KT 1 1/2SM VV011 M11/M14 A2963 RMK AO1 PRESRR SLP080
SPECI CYNL 270416Z AUTO 31007KT 1 1/4SM VV012 M11/M14 A2963 RMK AO1 PRESRR SLP080
SPECI CYNL 270415Z AUTO 31008KT 1 1/2SM VV013 M11/M14 A2963 RMK AO1 PRESRR SLP080
SPECI CYNL 270414Z AUTO 31008KT 2SM VV013 M11/M14 A2962 RMK AO1 PRESRR SLP080
SPECI CYNL 270410Z AUTO 32007KT 3SM VV013 M11/M13 A2962 RMK AO1 PRESRR SLP079
SPECI CYNL 270408Z AUTO 32006KT 2SM VV013 M11/M13 A2962 RMK AO1 PRESRR SLP079
SPECI CYNL 270405Z AUTO 31007KT 1 3/4SM FEW008 SCT010 BKN014 M11/M13 A2962 RMK AO1 PRESRR SLP079
METAR CYNL 270400Z AUTO 31006KT 5SM FEW007 BKN010 OVC072 M11/M13 A2962 RMK AO1 PRESRR SLP078
SPECI CYNL 270348Z AUTO 32006KT 9SM SCT008 BKN011 OVC070 M10/M13 A2961 RMK AO1 PRESRR SLP074
SPECI CYNL 270346Z AUTO 32006KT 9SM VV010 M10/M13 A2961 RMK AO1 PRESRR SLP074
SPECI CYNL 270338Z AUTO 32008KT 9SM BKN007 BKN014 OVC068 M10/M13 A2961 RMK AO1 PRESRR SLP072
SPECI CYNL 270337Z AUTO 33008KT 9SM SCT007 BKN012 BKN014 M10/M13 A2961 RMK AO1 PRESRR SLP071
SPECI CYNL 270324Z AUTO 32007KT 5SM VV009 M10/M12 A2960 RMK AO1 PRESRR SLP068
SPECI CYNL 270320Z AUTO 33007KT 3SM VV013 M10/M12 A2959 RMK AO1 PRESRR SLP067
SPECI CYNL 270318Z AUTO 32009KT 2SM VV014 M10/M12 A2959 RMK AO1 PRESRR SLP067
SPECI CYNL 270317Z AUTO 33009KT 2SM VV015 M10/M12 A2959 RMK AO1 PRESRR SLP067
SPECI CYNL 270314Z AUTO 33006KT 1 3/4SM VV015 M09/M12 A2959 RMK AO1 PRESRR SLP066
SPECI CYNL 270307Z AUTO 32006KT 1 1/2SM VV013 M09/M12 A2959 RMK AO1 PRESRR SLP065
METAR CYNL 270300Z AUTO 32007KT 1SM VV013 M09/M11 A2959 RMK AO1 PRESRR SLP064
SPECI CYNL 270250Z AUTO 33007G17KT 1 1/4SM VV014 M09/M11 A2958 RMK AO1 PRESRR SLP064
SPECI CYNL 270248Z AUTO 33007G17KT 1 1/4SM VV016 M09/M11 A2958 RMK AO1 PRESRR SLP063
SPECI CYNL 270244Z AUTO 34009G17KT 1 3/4SM VV017 M08/M11 A2958 RMK AO1 PRESRR SLP062
SPECI CYNL 270238Z AUTO 33009KT 2 1/2SM FEW007 SCT011 BKN015 M08/M11 A2957 RMK AO1 PRESRR SLP061
SPECI CYNL 270227Z AUTO 33006KT 4SM FEW008 BKN012 OVC027 M08/M11 A2956 RMK AO1 PRESRR SLP057
SPECI CYNL 270215Z AUTO 34011KT 4SM VV015 M08/M11 A2955 RMK AO1 PRESRR SLP053
SPECI CYNL 270214Z AUTO 34010G16KT 2 1/2SM VV013 M08/M11 A2955 RMK AO1 PRESRR SLP053
SPECI CYNL 270212Z AUTO 34011G16KT 1 3/4SM VV011 M08/M10 A2955 RMK AO1 PRESRR SLP052
SPECI CYNL 270210Z AUTO 35010G17KT 1SM VV011 M08/M10 A2955 RMK AO1 PRESRR SLP051
SPECI CYNL 270209Z AUTO 35010G17KT 3/4SM VV011 M08/M10 A2954 RMK AO1 PRESRR SLP050
SPECI CYNL 270208Z AUTO 00011G17KT 5/8SM VV010 M08/M10 A2954 RMK AO1 PRESRR SLP049
SPECI CYNL 270205Z AUTO 00009G17KT 3/4SM VV010 M07/M10 A2954 RMK AO1 WSHFT (01)52 PRESRR SLP049
METAR CYNL 270200Z AUTO 35012G25KT 5/8SM VV013 M07/M10 A2954 RMK AO1 WSHFT (01)52 PRESRR SLP047
SPECI CYNL 270156Z AUTO 32014G25KT 280V000 5/8SM VV014 M07/M10 A2953 RMK AO1 WSHFT (01)52 PRESRR SLP047
SPECI CYNL 270153Z AUTO 32014G25KT 270V000 3/4SM VV014 M07/M09 A2953 RMK AO1 WSHFT (01)52 PRESRR SLP045
SPECI CYNL 270152Z AUTO 31014G25KT 270V000 5/8SM VV014 M06/M09 A2952 RMK AO1 WSHFT (01)52 PRESRR SLP044
SPECI CYNL 270151Z AUTO 30014G25KT 270V340 3/4SM VV015 M06/M09 A2952 RMK AO1 PRESRR SLP043
SPECI CYNL 270149Z AUTO 29007KT 1 1/4SM VV015 M06/M09 A2952 RMK AO1 PRESRR SLP042
SPECI CYNL 270147Z AUTO 28004KT 1 3/4SM VV015 M06/M09 A2952 RMK AO1 PRESRR SLP041
SPECI CYNL 270145Z AUTO 27006KT 2SM VV015 M06/M09 A2952 RMK AO1 PRESRR SLP041
SPECI CYNL 270144Z AUTO 27006KT 2 1/2SM FEW005 BKN014 M06/M09 A2952 RMK AO1 PRESRR SLP040
SPECI CYNL 270138Z AUTO 26006KT 5SM FEW005 BKN014 BKN017 M06/M09 A2951 RMK AO1 PRESRR SLP039
SPECI CYNL 270133Z AUTO 26006KT 3SM VV013 M06/M09 A2951 RMK AO1 PRESRR SLP039
SPECI CYNL 270126Z AUTO 25005KT 2 1/2SM BKN014 OVC036 M06/M09 A2951 RMK AO1 PRESRR SLP038
SPECI CYNL 270124Z AUTO 26007KT 2 1/2SM BKN015 OVC036 M06/M09 A2951 RMK AO1 PRESRR SLP038
SPECI CYNL 270123Z AUTO 26008KT 3SM BKN015 OVC036 M06/M09 A2951 RMK AO1 PRESRR SLP038
SPECI CYNL 270122Z AUTO 26008KT 3SM BKN014 OVC036 M06/M09 A2951 RMK AO1 PRESRR SLP038
SPECI CYNL 270117Z AUTO 27007KT 4SM SCT016 BKN024 OVC036 M06/M10 A2951 RMK AO1 PRESRR SLP038
METAR CYNL 270100Z AUTO 26011KT 9SM BKN036 M05/M11 A2950 RMK AO1 PRESRR SLP036
SPECI CYNL 270025Z AUTO 27010G18KT 9SM OVC030 M04/M11 A2949 RMK AO1 PRESRR SLP032
SPECI CYNL 270019Z AUTO 27009G18KT 9SM OVC029 M04/M11 A2949 RMK AO1 PRESRR SLP031
METAR CYNL 270000Z AUTO 28008G17KT 9SM OVC030 M04/M10 A2948 RMK AO1 PRESRR SLP027
SPECI CYNL 262351Z AUTO 27008G16KT 9SM BKN030 OVC039 M03/M10 A2947 RMK AO1 SLP025
SPECI CYNL 262350Z AUTO 27008G16KT 9SM BKN029 OVC040 M03/M10 A2947 RMK AO1 SLP025
SPECI CYNL 262346Z AUTO 27009G16KT 9SM BKN030 OVC037 M03/M10 A2947 RMK AO1 SLP024
SPECI CYNL 262344Z AUTO 28008G17KT 9SM BKN029 OVC037 M03/M09 A2947 RMK AO1 SLP023
SPECI CYNL 262343Z AUTO 27008G17KT 9SM OVC030 M03/M09 A2947 RMK AO1 SLP023
SPECI CYNL 262317Z AUTO 31006KT 9SM FEW008 OVC026 M03/M07 A2946 RMK AO1 SLP019
SPECI CYNL 262314Z AUTO 32007KT 4SM FEW010 BKN026 M02/M07 A2946 RMK AO1 SLP018
SPECI CYNL 262311Z AUTO 32006KT 2 1/2SM BKN027 M02/M07 A2946 RMK AO1 SLP018
METAR CYNL 262300Z AUTO 31007KT 9SM BKN028 M02/M07 A2945 RMK AO1 SLP016
SPECI CYNL 262254Z AUTO 26011KT 210V300 9SM FEW012 BKN029 M02/M08 A2945 RMK AO1 PRESRR SLP017
SPECI CYNL 262242Z AUTO 17003KT 9SM FEW010 SCT015 BKN045 M02/M05 A2945 RMK AO1 PRESRR SLP018
SPECI CYNL 262239Z AUTO 17003KT 9SM FEW009 SCT015 BKN021 M02/M06 A2945 RMK AO1 PRESRR SLP018
SPECI CYNL 262238Z AUTO 17003KT 9SM FEW010 BKN014 M03/M06 A2945 RMK AO1 PRESRR SLP019
SPECI CYNL 262235Z AUTO 16003KT 8SM FEW005 SCT010 BKN019 M03/M06 A2945 RMK AO1 PRESRR SLP019
SPECI CYNL 262231Z AUTO 00000KT 3SM VV016 M03/M06 A2945 RMK AO1 PRESRR SLP020
SPECI CYNL 262230Z AUTO 00000KT 2SM VV014 M04/M06 A2945 RMK AO1 PRESRR SLP020
SPECI CYNL 262224Z AUTO 17005KT 1 1/2SM VV012 M04/M06 A2945 RMK AO1 PRESRR SLP020
SPECI CYNL 262222Z AUTO 17004KT 1SM VV014 M04/M06 A2945 RMK AO1 PRESRR SLP020
SPECI CYNL 262221Z AUTO 17004KT 1 1/4SM VV015 M04/M06 A2945 RMK AO1 PRESRR SLP020
SPECI CYNL 262218Z AUTO 15003KT 120V180 1 1/2SM VV015 M04/M06 A2945 RMK AO1 PRESRR SLP020
SPECI CYNL 262215Z AUTO 15003KT 110V180 1 1/2SM VV011 M04/M06 A2945 RMK AO1 PRESRR SLP020
SPECI CYNL 262213Z AUTO 15003KT 110V180 1 1/2SM VV008 M04/M06 A2945 RMK AO1 PRESRR SLP020
SPECI CYNL 262212Z AUTO 15003KT 110V180 1SM VV006 M04/M06 A2945 RMK AO1 PRESRR SLP020
METAR CYNL 262200Z AUTO 16002KT 1/4SM VV008 M04/M06 A2945 RMK AO1 PRESRR SLP019
SPECI CYNL 262151Z AUTO 13004KT 090V180 1/2SM VV009 M04/M07 A2944 RMK AO1 SLP018
SPECI CYNL 262150Z AUTO 12004KT 090V160 5/8SM VV010 M04/M07 A2944 RMK AO1 SLP018
SPECI CYNL 262149Z AUTO 11003KT 3/4SM VV010 M04/M07 A2944 RMK AO1 SLP018
SPECI CYNL 262143Z AUTO 09004KT 5/8SM VV011 M04/M07 A2944 RMK AO1 SLP017
SPECI CYNL 262138Z AUTO 09002KT 3/4SM VV011 M04/M07 A2944 RMK AO1 SLP017
SPECI CYNL 262137Z AUTO 09003KT 1SM VV010 M04/M07 A2944 RMK AO1 SLP017
SPECI CYNL 262136Z AUTO 09003KT 3/4SM VV010 M04/M07 A2944 RMK AO1 SLP017
SPECI CYNL 262131Z AUTO 09005KT 3/4SM VV009 M04/M07 A2944 RMK AO1 SLP016
SPECI CYNL 262125Z AUTO 10006KT 5/8SM VV009 M04/M07 A2943 RMK AO1 SLP015
SPECI CYNL 262124Z AUTO 09005KT 3/4SM VV010 M04/M07 A2943 RMK AO1 SLP015
SPECI CYNL 262117Z AUTO 09006KT 1SM VV014 M04/M07 A2943 RMK AO1 SLP013
SPECI CYNL 262116Z AUTO 08007KT 1SM VV015 M04/M07 A2943 RMK AO1 SLP012
SPECI CYNL 262114Z AUTO 08007KT 2 1/2SM SCT013 OVC019 M04/M07 A2943 RMK AO1 SLP012
SPECI CYNL 262105Z AUTO 08008KT 3SM SCT013 OVC019 M03/M07 A2943 RMK AO1 SLP013
SPECI CYNL 262101Z AUTO 10005KT 2 1/2SM FEW010 SCT013 OVC019 M03/M07 A2943 RMK AO1 SLP012
METAR CYNL 262100Z AUTO 10006KT 3SM FEW010 SCT013 OVC019 M03/M07 A2943 RMK AO1 SLP012
SPECI CYNL 262056Z AUTO 11007KT 3SM FEW010 SCT013 OVC018 M04/M08 A2943 RMK AO1 SLP014
SPECI CYNL 262053Z AUTO 10007KT 2SM FEW009 BKN013 BKN017 M04/M07 A2942 RMK AO1 SLP014
SPECI CYNL 262052Z AUTO 10008KT 2 1/2SM BKN013 BKN017 OVC022 M04/M08 A2942 RMK AO1 SLP014
METAR CYNL 262000Z AUTO 10005KT 9SM OVC011 M04/M08 A2942 RMK AO1 SLP013
SPECI CYNL 261901Z AUTO 08006KT 9SM OVC010 M06/M09 A2943 RMK AO1 SLP018
METAR CYNL 261900Z AUTO 08006KT 9SM BKN009 OVC011 M06/M09 A2943 RMK AO1 SLP018
METAR CYNL 261800Z AUTO 08011KT 9SM OVC009 M07/M10 A2943 RMK AO1 SLP022
SPECI CYNL 261713Z AUTO 10009KT 9SM OVC009 M08/M11 A2944 RMK AO1 SLP024
METAR CYNL 261700Z AUTO 10012KT 9SM OVC010 M08/M11 A2944 RMK AO1 SLP025
SPECI CYNL 261606Z AUTO 10012G19KT 4SM BKN012 BKN015 OVC025 M07/M11 A2944 RMK AO1 PRESFR SLP023
SPECI CYNL 261605Z AUTO 09013G19KT 3SM SCT012 BKN015 OVC025 M07/M11 A2944 RMK AO1 PRESFR SLP023
SPECI CYNL 261603Z AUTO 10015KT 2 1/2SM SCT012 BKN015 OVC025 M07/M11 A2944 RMK AO1 PRESFR SLP025
SPECI CYNL 261601Z AUTO 10013KT 4SM BKN012 BKN015 OVC025 M07/M11 A2944 RMK AO1 PRESFR SLP025
METAR CYNL 261600Z AUTO 10013KT 5SM SCT012 BKN015 BKN017 M07/M11 A2944 RMK AO1 PRESFR SLP025
SPECI CYNL 261559Z AUTO 10012KT 5SM SCT012 BKN015 OVC025 M07/M11 A2944 RMK AO1 PRESFR SLP023
SPECI CYNL 261553Z AUTO 10012KT 4SM VV014 M07/M11 A2945 RMK AO1 PRESFR SLP023
SPECI CYNL 261523Z AUTO 09010KT 3SM VV019 M08/M11 A2946 RMK AO1 PRESFR SLP029
SPECI CYNL 261520Z AUTO 08011KT 2 1/2SM VV016 M08/M11 A2946 RMK AO1 PRESFR SLP029
SPECI CYNL 261519Z AUTO 08010KT 2SM VV014 M08/M11 A2946 RMK AO1 PRESFR SLP029
SPECI CYNL 261516Z AUTO 09010G15KT 1 1/2SM VV014 M08/M11 A2946 RMK AO1 PRESFR SLP030
SPECI CYNL 261513Z AUTO 08011KT 1 3/4SM VV015 M09/M12 A2946 RMK AO1 PRESFR SLP030
SPECI CYNL 261510Z AUTO 09010KT 1 1/2SM VV013 M09/M12 A2946 RMK AO1 PRESFR SLP031
SPECI CYNL 261506Z AUTO 09011KT 1SM VV010 M09/M12 A2947 RMK AO1 PRESFR SLP031
SPECI CYNL 261504Z AUTO 08011KT 1SM VV009 M09/M12 A2947 RMK AO1 PRESFR SLP032
SPECI CYNL 261501Z AUTO 08010KT 3/4SM VV008 M09/M12 A2947 RMK AO1 PRESFR SLP032
METAR CYNL 261500Z AUTO 09011KT 5/8SM VV008 M09/M12 A2947 RMK AO1 PRESFR SLP033
SPECI CYNL 261457Z AUTO 09010KT 5/8SM VV009 M09/M12 A2947 RMK AO1 PRESFR SLP031
SPECI CYNL 261455Z AUTO 09009G15KT 3/4SM VV009 M09/M12 A2947 RMK AO1 PRESFR SLP031
SPECI CYNL 261447Z AUTO 09010G15KT 3/4SM VV010 M10/M13 A2948 RMK AO1 PRESFR SLP033
SPECI CYNL 261437Z AUTO 08008KT 1 1/4SM VV011 M10/M13 A2948 RMK AO1 PRESFR SLP036
SPECI CYNL 261436Z AUTO 08008KT 1 1/2SM VV011 M10/M13 A2948 RMK AO1 PRESFR SLP036
SPECI CYNL 261432Z AUTO 08008KT 1SM VV010 M10/M13 A2948 RMK AO1 PRESFR SLP037
SPECI CYNL 261429Z AUTO 09008KT 1SM VV008 M10/M13 A2949 RMK AO1 PRESFR SLP037
SPECI CYNL 261427Z AUTO 08008KT 3/4SM VV008 M11/M13 A2949 RMK AO1 PRESFR SLP038
SPECI CYNL 261413Z AUTO 08008KT 5/8SM VV009 M11/M14 A2949 RMK AO1 PRESFR SLP040
SPECI CYNL 261411Z AUTO 08008KT 5/8SM VV010 M11/M14 A2949 RMK AO1 PRESFR SLP040
SPECI CYNL 261407Z AUTO 08008KT 3/4SM VV012 M11/M14 A2949 RMK AO1 PRESFR SLP041
SPECI CYNL 261402Z AUTO 08007KT 1SM VV012 M11/M14 A2950 RMK AO1 PRESFR SLP041
METAR CYNL 261400Z AUTO 08007KT 3/4SM VV012 M11/M14 A2950 RMK AO1 PRESFR SLP041
SPECI CYNL 261358Z AUTO 08007KT 3/4SM VV012 M11/M14 A2950 RMK AO1 PRESFR SLP038
SPECI CYNL 261350Z AUTO 07008KT 1SM VV014 M11/M14 A2950 RMK AO1 PRESFR SLP039
SPECI CYNL 261344Z AUTO 07008KT 1SM VV015 M12/M14 A2950 RMK AO1 PRESFR SLP041
SPECI CYNL 261333Z AUTO 08009KT 1SM VV011 M12/M15 A2951 RMK AO1 PRESFR SLP042
SPECI CYNL 261331Z AUTO 08010KT 3/4SM VV011 M12/M15 A2951 RMK AO1 PRESFR SLP043
SPECI CYNL 261324Z AUTO 08008KT 1SM VV012 M12/M15 A2951 RMK AO1 PRESFR SLP045
SPECI CYNL 261321Z AUTO 08009KT 3/4SM VV011 M12/M15 A2951 RMK AO1 PRESFR SLP045
SPECI CYNL 261313Z AUTO 08009KT 1SM VV014 M12/M15 A2952 RMK AO1 PRESFR SLP047
SPECI CYNL 261310Z AUTO 09009KT 1 1/4SM VV015 M12/M15 A2952 RMK AO1 PRESFR SLP047
SPECI CYNL 261303Z AUTO 09008KT 1 1/2SM VV016 M12/M15 A2952 RMK AO1 PRESFR SLP049
METAR CYNL 261300Z AUTO 08008KT 1 1/4SM VV015 M12/M15 A2952 RMK AO1 PRESFR SLP049
SPECI CYNL 261254Z AUTO 09009KT 1 1/4SM VV016 M12/M15 A2953 RMK AO1 PRESFR SLP048
SPECI CYNL 261250Z AUTO 08008KT 1 3/4SM VV018 M12/M15 A2953 RMK AO1 PRESFR SLP048
SPECI CYNL 261238Z AUTO 09007KT 2SM VV022 M13/M15 A2953 RMK AO1 PRESFR SLP050
SPECI CYNL 261225Z AUTO 09007KT 1 3/4SM VV022 M13/M15 A2954 RMK AO1 PRESFR SLP053
SPECI CYNL 261220Z AUTO 09007KT 2 1/2SM VV021 M13/M16 A2954 RMK AO1 PRESFR SLP053
SPECI CYNL 261212Z AUTO 09007KT 3SM VV020 M13/M16 A2954 RMK AO1 PRESFR SLP054
SPECI CYNL 261204Z AUTO 08006KT 2 1/2SM VV020 M13/M16 A2955 RMK AO1 PRESFR SLP055
METAR CYNL 261200Z AUTO 09005KT 3SM VV020 M13/M16 A2955 RMK AO1 PRESFR SLP057
SPECI CYNL 261155Z AUTO 09006KT 3SM VV021 M13/M16 A2955 RMK AO1 SLP056
SPECI CYNL 261151Z AUTO 09007KT 2SM VV017 M13/M16 A2955 RMK AO1 SLP056
SPECI CYNL 261150Z AUTO 09006KT 1 3/4SM VV015 M13/M16 A2955 RMK AO1 SLP056
SPECI CYNL 261149Z AUTO 09006KT 1 1/2SM VV014 M13/M16 A2955 RMK AO1 SLP057
SPECI CYNL 261146Z AUTO 09006KT 1SM VV010 M13/M16 A2955 RMK AO1 SLP057
SPECI CYNL 261145Z AUTO 09006KT 3/4SM VV010 M13/M16 A2956 RMK AO1 SLP058
SPECI CYNL 261143Z AUTO 09008KT 3/4SM VV009 M13/M16 A2956 RMK AO1 SLP058
SPECI CYNL 261141Z AUTO 09008KT 3/4SM VV010 M13/M16 A2956 RMK AO1 SLP059
SPECI CYNL 261123Z AUTO 08005KT 1 1/4SM VV012 M14/M17 A2957 RMK AO1 SLP062
SPECI CYNL 261121Z AUTO 08005KT 1 1/2SM VV012 M14/M17 A2957 RMK AO1 SLP063
SPECI CYNL 261116Z AUTO 08005KT 1SM VV014 M14/M17 A2957 RMK AO1 SLP064
SPECI CYNL 261109Z AUTO 09004KT 1 1/4SM VV018 M14/M17 A2957 RMK AO1 SLP065
SPECI CYNL 261103Z AUTO 08005KT 1 3/4SM VV020 M15/M18 A2958 RMK AO1 SLP066
METAR CYNL 261100Z AUTO 08005KT 2 1/2SM VV022 M15/M18 A2958 RMK AO1 SLP067
SPECI CYNL 261059Z AUTO 08005KT 2 1/2SM VV023 M15/M18 A2958 RMK AO1 SLP067
SPECI CYNL 261046Z AUTO 08005KT 3SM VV018 M15/M18 A2958 RMK AO1 PRESFR SLP067
SPECI CYNL 261041Z AUTO 08005KT 2SM VV015 M15/M18 A2958 RMK AO1 PRESFR SLP068
SPECI CYNL 261038Z AUTO 08005KT 1 1/2SM VV015 M15/M18 A2958 RMK AO1 PRESFR SLP068
SPECI CYNL 261035Z AUTO 08005KT 1 1/4SM VV015 M15/M18 A2958 RMK AO1 PRESFR SLP069
SPECI CYNL 261031Z AUTO 08005KT 1 3/4SM VV017 M15/M19 A2959 RMK AO1 PRESFR SLP070
SPECI CYNL 261029Z AUTO 08005KT 2SM VV019 M15/M19 A2959 RMK AO1 PRESFR SLP070
SPECI CYNL 261026Z AUTO 09005KT 1 3/4SM VV022 M15/M19 A2959 RMK AO1 PRESFR SLP071
SPECI CYNL 261015Z AUTO 08004KT 2 1/2SM VV020 M15/M19 A2959 RMK AO1 PRESFR SLP072
METAR CYNL 261000Z AUTO 07003KT 4SM VV019 M16/M20 A2960 RMK AO1 PRESFR SLP074
SPECI CYNL 260954Z AUTO 08003KT 5SM VV021 M16/M20 A2960 RMK AO1 SLP074
METAR CYNL 260900Z AUTO 08003KT 9SM CLR M17/M21 A2962 RMK AO1 SLP083
METAR CYNL 260800Z AUTO 08004KT 9SM CLR M18/M22 A2963 RMK AO1 SLP086
METAR CYNL 260700Z AUTO 00000KT 9SM CLR M18/M22 A2964 RMK AO1 SLP093
METAR CYNL 260600Z AUTO 00000KT 9SM CLR M19/M23 A2965 RMK AO1 SLP097
METAR CYNL 260500Z AUTO 00000KT 9SM CLR M18/M22 A2966 RMK AO1 SLP101
METAR CYNL 260400Z AUTO 00000KT 9SM CLR M15/M20 A2967 RMK AO1 SLP101
METAR CYNL 260300Z AUTO 00004KT 9SM CLR M13/M19 A2967 RMK AO1 SLP099
METAR CYNL 260200Z AUTO 33005KT 9SM CLR M10/M19 A2967 RMK AO1 SLP095
METAR CYNL 260100Z AUTO 29007KT 9SM CLR M08/M18 A2968 RMK AO1 SLP096
METAR CYNL 260000Z AUTO 31008KT 9SM CLR M07/M18 A2968 RMK AO1 SLP096
METAR CYNL 252300Z AUTO 29009G16KT 9SM FEW044 M06/M18 A2967 RMK AO1 SLP095
METAR CYNL 252200Z AUTO 26008G16KT 9SM SCT040 M06/M17 A2966 RMK AO1 SLP091
METAR CYNL 252100Z AUTO 29014KT 9SM SCT038 M06/M17 A2966 RMK AO1 SLP091
METAR CYNL 252000Z AUTO 29006G19KT 9SM BKN036 BKN170 M06/M16 A2965 RMK AO1 WSHFT (19)54 SLP089
SPECI CYNL 251954Z AUTO 30013G19KT 9SM BKN036 BKN130 M06/M16 A2965 RMK AO1 WSHFT (19)54 SLP089
SPECI CYNL 251936Z AUTO 26014G21KT 9SM BKN035 M07/M16 A2965 RMK AO1 WSHFT (19)36 SLP089
SPECI CYNL 251930Z AUTO 29012G23KT 9SM BKN034 M07/M17 A2965 RMK AO1 WSHFT (19)30 SLP089
METAR CYNL 251900Z AUTO 28011G17KT 9SM BKN034 M07/M16 A2965 RMK AO1 SLP089
SPECI CYNL 251821Z AUTO 29009G18KT 9SM FEW013 OVC030 M07/M16 A2965 RMK AO1 SLP089
SPECI CYNL 251820Z AUTO 29010G18KT 9SM FEW013 OVC029 M08/M16 A2965 RMK AO1 SLP089
SPECI CYNL 251815Z AUTO 28013G19KT 9SM FEW008 OVC030 M08/M16 A2965 RMK AO1 SLP090
SPECI CYNL 251811Z AUTO 29012G19KT 9SM FEW008 OVC029 M08/M16 A2965 RMK AO1 SLP090
SPECI CYNL 251806Z AUTO 28012G19KT 8SM FEW009 BKN030 M08/M16 A2965 RMK AO1 SLP090
METAR CYNL 251800Z AUTO 28011G17KT 9SM FEW024 BKN030 M08/M16 A2965 RMK AO1 SLP090
SPECI CYNL 251721Z AUTO 28011G22KT 9SM BKN030 M08/M16 A2965 RMK AO1 SLP088
SPECI CYNL 251715Z AUTO 28010G19KT 9SM BKN029 M07/M16 A2964 RMK AO1 SLP087
SPECI CYNL 251705Z AUTO 28010G21KT 9SM BKN030 M07/M16 A2964 RMK AO1 SLP086
METAR CYNL 251700Z AUTO 26012G21KT 9SM BKN029 M08/M16 A2964 RMK AO1 SLP086
SPECI CYNL 251650Z AUTO 28010G20KT 9SM BKN029 M08/M16 A2964 RMK AO1 SLP085
METAR CYNL 251600Z AUTO 30014G22KT 9SM SCT029 M08/M17 A2964 RMK AO1 SLP085
METAR CYNL 251500Z AUTO 30012G19KT 9SM SCT025 M08/M14 A2963 RMK AO1 SLP084
SPECI CYNL 251447Z AUTO 29011G19KT 9SM SCT017 M09/M14 A2964 RMK AO1 SLP085
SPECI CYNL 251442Z AUTO 28010G17KT 9SM SCT017 BKN025 M09/M14 A2964 RMK AO1 SLP085
SPECI CYNL 251406Z AUTO 27010G16KT 5SM FEW016 BKN023 M09/M12 A2963 RMK AO1 SLP084
METAR CYNL 251400Z AUTO 27006KT 9SM FEW012 SCT017 M09/M12 A2964 RMK AO1 SLP084
SPECI CYNL 251355Z AUTO 27007G18KT 9SM FEW010 SCT015 BKN033 M09/M13 A2964 RMK AO1 SLP085
SPECI CYNL 251351Z AUTO 27008G18KT 9SM FEW009 SCT014 BKN024 M10/M13 A2964 RMK AO1 SLP085
SPECI CYNL 251349Z AUTO 28008G18KT 9SM FEW011 SCT015 BKN019 M10/M13 A2964 RMK AO1 SLP085
SPECI CYNL 251348Z AUTO 28009G18KT 9SM BKN013 BKN024 M10/M13 A2964 RMK AO1 SLP085
SPECI CYNL 251346Z AUTO 29010G18KT 7SM FEW008 BKN013 OVC024 M10/M13 A2964 RMK AO1 SLP085
SPECI CYNL 251343Z AUTO 29008KT 4SM SCT011 BKN015 OVC021 M09/M12 A2964 RMK AO1 SLP085
SPECI CYNL 251342Z AUTO 29009KT 2SM VV016 M09/M12 A2964 RMK AO1 SLP085
SPECI CYNL 251339Z AUTO 26007KT 1SM VV015 M09/M12 A2964 RMK AO1 SLP085
SPECI CYNL 251333Z AUTO 24005KT 3/4SM VV010 M09/M12 A2964 RMK AO1 SLP085
SPECI CYNL 251327Z AUTO 25007KT 5/8SM VV014 M09/M12 A2964 RMK AO1 SLP085
SPECI CYNL 251326Z AUTO 24006KT 1SM VV014 M09/M12 A2964 RMK AO1 SLP085
SPECI CYNL 251325Z AUTO 23007KT 1 1/4SM VV015 M09/M12 A2964 RMK AO1 SLP085
SPECI CYNL 251323Z AUTO 22006KT 1 1/2SM VV015 M09/M12 A2964 RMK AO1 SLP085
SPECI CYNL 251317Z AUTO 23006KT 1 1/2SM VV010 M10/M12 A2964 RMK AO1 SLP086
SPECI CYNL 251316Z AUTO 24006KT 1 1/4SM VV010 M10/M12 A2964 RMK AO1 SLP086
SPECI CYNL 251310Z AUTO 22006KT 1SM VV009 M10/M12 A2964 RMK AO1 SLP087
SPECI CYNL 251307Z AUTO 22006KT 1SM VV010 M10/M12 A2964 RMK AO1 SLP087
SPECI CYNL 251303Z AUTO 20007KT 3/4SM VV011 M10/M13 A2964 RMK AO1 SLP087
METAR CYNL 251300Z AUTO 20006KT 1 3/4SM VV012 M10/M13 A2964 RMK AO1 SLP087
SPECI CYNL 251252Z AUTO 21005KT 1 3/4SM VV012 M10/M13 A2964 RMK AO1 SLP087
SPECI CYNL 251251Z AUTO 21006KT 1 1/4SM VV013 M10/M13 A2964 RMK AO1 SLP087
SPECI CYNL 251249Z AUTO 21006KT 3/4SM VV014 M10/M13 A2964 RMK AO1 SLP087
SPECI CYNL 251248Z AUTO 20006KT 1SM VV015 M10/M13 A2964 RMK AO1 SLP087
SPECI CYNL 251244Z AUTO 20006KT 1 3/4SM VV015 M10/M13 A2964 RMK AO1 SLP088
SPECI CYNL 251240Z AUTO 20006KT 1 1/2SM VV012 M11/M13 A2964 RMK AO1 SLP088
SPECI CYNL 251238Z AUTO 20006KT 1 1/4SM VV014 M11/M13 A2965 RMK AO1 SLP088
SPECI CYNL 251237Z AUTO 20006KT 1 1/2SM VV015 M11/M13 A2965 RMK AO1 SLP089
SPECI CYNL 251233Z AUTO 19006KT 1 1/4SM VV018 M11/M13 A2965 RMK AO1 SLP089
SPECI CYNL 251231Z AUTO 19007KT 1 3/4SM VV021 M11/M13 A2965 RMK AO1 SLP089
SPECI CYNL 251227Z AUTO 20006KT 2SM VV019 M11/M13 A2965 RMK AO1 SLP090
SPECI CYNL 251223Z AUTO 19005KT 1 1/2SM VV014 M11/M14 A2965 RMK AO1 SLP090
SPECI CYNL 251221Z AUTO 18005KT 1SM VV012 M11/M14 A2965 RMK AO1 SLP090
SPECI CYNL 251220Z AUTO 19006KT 3/4SM VV011 M11/M14 A2965 RMK AO1 SLP091
SPECI CYNL 251219Z AUTO 19006KT 1SM VV011 M11/M14 A2965 RMK AO1 SLP091
SPECI CYNL 251218Z AUTO 19006KT 3/4SM VV010 M11/M14 A2965 RMK AO1 SLP091
SPECI CYNL 251212Z AUTO 20005KT 1 1/4SM VV009 M11/M14 A2965 RMK AO1 SLP092
SPECI CYNL 251211Z AUTO 20005KT 1 1/2SM VV009 M11/M14 A2965 RMK AO1 SLP092
SPECI CYNL 251209Z AUTO 19004KT 1 1/4SM VV010 M11/M14 A2965 RMK AO1 SLP092
SPECI CYNL 251207Z AUTO 19005KT 2 1/2SM VV011 M11/M14 A2966 RMK AO1 SLP093
SPECI CYNL 251203Z AUTO 20005KT 3SM VV014 M11/M14 A2966 RMK AO1 SLP093
METAR CYNL 251200Z AUTO 20004KT 2SM VV015 M11/M14 A2966 RMK AO1 SLP094
SPECI CYNL 251158Z AUTO 19006KT 2SM VV014 M11/M14 A2966 RMK AO1 SLP093
SPECI CYNL 251156Z AUTO 19006KT 1 1/2SM VV013 M11/M14 A2966 RMK AO1 PRESFR SLP093
SPECI CYNL 251152Z AUTO 18006KT 1 1/4SM VV014 M11/M14 A2966 RMK AO1 PRESFR SLP093
SPECI CYNL 251147Z AUTO 19005KT 1 1/2SM VV013 M11/M14 A2966 RMK AO1 PRESFR SLP094
SPECI CYNL 251141Z AUTO 18005KT 1SM VV010 M11/M14 A2966 RMK AO1 PRESFR SLP094
SPECI CYNL 251140Z AUTO 18004KT 3/4SM VV010 M11/M14 A2966 RMK AO1 PRESFR SLP095
SPECI CYNL 251138Z AUTO 19005KT 5/8SM VV011 M11/M14 A2966 RMK AO1 PRESFR SLP095
SPECI CYNL 251137Z AUTO 18005KT 3/4SM VV011 M12/M14 A2966 RMK AO1 PRESFR SLP095
SPECI CYNL 251130Z AUTO 18004KT 1SM VV014 M12/M14 A2967 RMK AO1 PRESFR SLP095
SPECI CYNL 251127Z AUTO 17005KT 1SM VV015 M12/M14 A2967 RMK AO1 PRESFR SLP096
SPECI CYNL 251125Z AUTO 18005KT 3/4SM VV016 M12/M14 A2967 RMK AO1 PRESFR SLP096
SPECI CYNL 251122Z AUTO 17005KT 1SM VV019 M12/M14 A2967 RMK AO1 PRESFR SLP096
SPECI CYNL 251120Z AUTO 17005KT 3/4SM VV020 M12/M14 A2967 RMK AO1 PRESFR SLP096
SPECI CYNL 251115Z AUTO 17005KT 1 1/4SM VV023 M12/M14 A2967 RMK AO1 PRESFR SLP098
SPECI CYNL 251114Z AUTO 16005KT 1 3/4SM VV023 M12/M14 A2967 RMK AO1 PRESFR SLP098
SPECI CYNL 251112Z AUTO 16004KT 2SM VV024 M12/M14 A2967 RMK AO1 PRESFR SLP098
SPECI CYNL 251109Z AUTO 17004KT 1 3/4SM VV026 M12/M14 A2967 RMK AO1 PRESFR SLP099
SPECI CYNL 251108Z AUTO 17004KT 2SM VV026 M12/M14 A2967 RMK AO1 PRESFR SLP099
SPECI CYNL 251106Z AUTO 17005KT 3SM VV029 M12/M14 A2968 RMK AO1 PRESFR SLP099
SPECI CYNL 251105Z AUTO 17005KT 3SM VV030 M12/M14 A2968 RMK AO1 PRESFR SLP100
SPECI CYNL 251103Z AUTO 17003KT 2 1/2SM VV030 M12/M14 A2968 RMK AO1 PRESFR SLP100
METAR CYNL 251100Z AUTO 16004KT 2 1/2SM VV028 M12/M14 A2968 RMK AO1 PRESFR SLP100
SPECI CYNL 251058Z AUTO 16004KT 2 1/2SM VV025 M12/M14 A2968 RMK AO1 PRESFR SLP098
SPECI CYNL 251049Z AUTO 14003KT 3SM VV020 M12/M15 A2968 RMK AO1 PRESFR SLP099
SPECI CYNL 251045Z AUTO 13003KT 2SM VV016 M12/M15 A2968 RMK AO1 PRESFR SLP100
SPECI CYNL 251044Z AUTO 14003KT 1 3/4SM VV015 M12/M15 A2968 RMK AO1 PRESFR SLP100
SPECI CYNL 251043Z AUTO 14003KT 1 1/2SM VV014 M12/M15 A2969 RMK AO1 PRESFR SLP100
SPECI CYNL 251036Z AUTO 16003KT 1 1/4SM VV013 M12/M15 A2969 RMK AO1 PRESFR SLP102
SPECI CYNL 251033Z AUTO 17003KT 1 3/4SM VV014 M12/M15 A2969 RMK AO1 PRESFR SLP102
SPECI CYNL 251032Z AUTO 18003KT 1 3/4SM VV015 M12/M15 A2969 RMK AO1 PRESFR SLP102
SPECI CYNL 251027Z AUTO 17004KT 2SM VV015 M12/M15 A2969 RMK AO1 PRESFR SLP102
SPECI CYNL 251023Z AUTO 16005KT 2SM VV014 M12/M15 A2969 RMK AO1 PRESFR SLP103
SPECI CYNL 251011Z AUTO 17005KT 2 1/2SM VV024 M12/M15 A2970 RMK AO1 PRESFR SLP105
SPECI CYNL 251010Z AUTO 17005KT 2 1/2SM VV025 M12/M15 A2970 RMK AO1 PRESFR SLP105
SPECI CYNL 251008Z AUTO 17005KT 3SM VV026 M12/M15 A2970 RMK AO1 PRESFR SLP105
SPECI CYNL 251007Z AUTO 17005KT 3SM SCT007 BKN015 BKN026 M12/M15 A2970 RMK AO1 PRESFR SLP105
SPECI CYNL 251004Z AUTO 17004KT 4SM SCT007 BKN011 BKN028 M12/M15 A2970 RMK AO1 PRESFR SLP106
SPECI CYNL 251002Z AUTO 17004KT 4SM FEW006 BKN009 BKN015 M12/M15 A2970 RMK AO1 PRESFR SLP106
SPECI CYNL 251001Z AUTO 17004KT 4SM FEW006 SCT008 BKN012 M12/M15 A2970 RMK AO1 PRESFR SLP106
METAR CYNL 251000Z AUTO 17004KT 4SM VV008 M12/M15 A2970 RMK AO1 PRESFR SLP106
SPECI CYNL 250959Z AUTO 17004KT 4SM VV009 M12/M15 A2970 RMK AO1 PRESFR SLP106
SPECI CYNL 250958Z AUTO 17004KT 3SM VV011 M12/M15 A2970 RMK AO1 PRESFR SLP105
SPECI CYNL 250953Z AUTO 19004KT 2SM VV010 M12/M15 A2971 RMK AO1 PRESFR SLP107
SPECI CYNL 250948Z AUTO 20005KT 2SM VV009 M12/M15 A2971 RMK AO1 PRESFR SLP108
SPECI CYNL 250943Z AUTO 19004KT 2 1/2SM VV011 M12/M15 A2971 RMK AO1 PRESFR SLP109
SPECI CYNL 250939Z AUTO 19004KT 3SM VV012 M12/M15 A2972 RMK AO1 PRESFR SLP109
SPECI CYNL 250938Z AUTO 19004KT 2 1/2SM VV014 M12/M15 A2972 RMK AO1 PRESFR SLP109
SPECI CYNL 250912Z AUTO 16003KT 4SM VV015 M12/M16 A2972 RMK AO1 PRESFR SLP111
SPECI CYNL 250903Z AUTO 16003KT 5SM VV014 M12/M16 A2973 RMK AO1 PRESFR SLP112
SPECI CYNL 250902Z AUTO 16003KT 5SM VV015 M12/M16 A2973 RMK AO1 PRESFR SLP112
METAR CYNL 250900Z AUTO 16003KT 5SM FEW015 M12/M16 A2973 RMK AO1 PRESFR SLP113
METAR CYNL 250800Z AUTO 18004KT 9SM CLR M12/M16 A2975 RMK AO1 PRESFR SLP121
METAR CYNL 250700Z AUTO 17003KT 9SM CLR M12/M16 A2978 RMK AO1 SLP131
METAR CYNL 250600Z AUTO 16002KT 9SM CLR M12/M15 A2980 RMK AO1 PRESFR SLP138
METAR CYNL 250500Z AUTO 21002KT 8SM CLR M11/M15 A2982 RMK AO1 PRESFR SLP144
SPECI CYNL 250408Z AUTO 00000KT 6SM FEW008 M11/M16 A2983 RMK AO1 SLP152
METAR CYNL 250400Z AUTO 00000KT 9SM FEW010 M11/M16 A2984 RMK AO1 SLP153
SPECI CYNL 250342Z AUTO 30002KT 7SM FEW008 SCT017 M11/M16 A2984 RMK AO1 SLP155
SPECI CYNL 250338Z AUTO 32003KT 6SM FEW008 SCT011 BKN017 M11/M16 A2984 RMK AO1 SLP155
SPECI CYNL 250337Z AUTO 33004KT 6SM VV009 M11/M16 A2984 RMK AO1 SLP155
SPECI CYNL 250331Z AUTO 33004KT 4SM VV014 M11/M16 A2985 RMK AO1 SLP156
SPECI CYNL 250323Z AUTO 33004KT 7SM VV018 M11/M17 A2985 RMK AO1 SLP155
METAR CYNL 250300Z AUTO 30002KT 9SM OVC036 M10/M18 A2985 RMK AO1 SLP156
METAR CYNL 250200Z AUTO 31004KT 9SM OVC040 M10/M18 A2985 RMK AO1 SLP159
METAR CYNL 250100Z AUTO 31008KT 9SM OVC041 M09/M18 A2986 RMK AO1 SLP161
METAR CYNL 250000Z AUTO 31007KT 9SM SCT044 M09/M17 A2986 RMK AO1 SLP161
METAR CYNL 242300Z AUTO 31008G15KT 9SM FEW041 M07/M15 A2985 RMK AO1 SLP159
METAR CYNL 242200Z AUTO 30009G18KT 9SM FEW033 M05/M14 A2985 RMK AO1 SLP156
METAR CYNL 242100Z AUTO 31008KT 9SM SCT020 BKN200 M05/M13 A2986 RMK AO1 SLP158
SPECI CYNL 242054Z AUTO 29008G15KT 7SM FEW011 SCT022 BKN200 M06/M13 A2986 RMK AO1 SLP160
SPECI CYNL 242053Z AUTO 30007G15KT 7SM VV021 M06/M13 A2986 RMK AO1 SLP160
METAR CYNL 242000Z AUTO 27006KT 9SM FEW008 SCT023 BKN160 M05/M13 A2986 RMK AO1 SLP160
SPECI CYNL 241958Z AUTO 28006KT 9SM FEW008 SCT022 BKN100 M05/M13 A2986 RMK AO1 SLP161
SPECI CYNL 241954Z AUTO 28007KT 8SM FEW008 BKN023 M05/M13 A2987 RMK AO1 SLP162
SPECI CYNL 241947Z AUTO 32006KT 9SM FEW012 BKN023 BKN150 M05/M13 A2986 RMK AO1 SLP162
SPECI CYNL 241945Z AUTO 31007KT 9SM SCT016 BKN027 BKN110 M05/M13 A2987 RMK AO1 SLP162
SPECI CYNL 241941Z AUTO 30009KT 4SM SCT012 BKN023 BKN110 M05/M13 A2987 RMK AO1 SLP163
SPECI CYNL 241939Z AUTO 29008KT 260V330 6SM SCT014 BKN026 OVC220 M05/M13 A2987 RMK AO1 SLP162
SPECI CYNL 241938Z AUTO 30008KT 260V340 8SM BKN014 BKN026 OVC220 M05/M13 A2987 RMK AO1 SLP162
SPECI CYNL 241928Z AUTO 33007KT 4SM VV015 M05/M11 A2987 RMK AO1 SLP162
SPECI CYNL 241924Z AUTO 33006KT 2 1/2SM VV015 M05/M11 A2987 RMK AO1 SLP163
SPECI CYNL 241920Z AUTO 32006KT 2SM VV014 M05/M11 A2987 RMK AO1 SLP163
SPECI CYNL 241916Z AUTO 34009KT 2SM VV015 M05/M11 A2987 RMK AO1 SLP162
SPECI CYNL 241913Z AUTO 32006KT 1 3/4SM VV016 M05/M11 A2987 RMK AO1 SLP162
SPECI CYNL 241907Z AUTO 30005KT 2 1/2SM VV018 M05/M12 A2987 RMK AO1 SLP164
SPECI CYNL 241903Z AUTO 29008G15KT 3SM VV017 M06/M12 A2987 RMK AO1 SLP165
METAR CYNL 241900Z AUTO 32007G15KT 2SM VV015 M06/M12 A2987 RMK AO1 SLP165
SPECI CYNL 241858Z AUTO 31008G16KT 1 1/2SM VV017 M06/M12 A2987 RMK AO1 SLP165
SPECI CYNL 241856Z AUTO 31008G16KT 1 1/4SM VV019 M06/M12 A2987 RMK AO1 WSHFT (18)42 SLP165
SPECI CYNL 241854Z AUTO 31009G16KT 2 1/2SM VV021 M06/M12 A2987 RMK AO1 WSHFT (18)42 SLP165
SPECI CYNL 241851Z AUTO 31009G16KT 5SM VV022 M06/M12 A2987 RMK AO1 WSHFT (18)42 SLP165
SPECI CYNL 241842Z AUTO 29011G17KT 260V320 9SM FEW028 SCT054 BKN180 M05/M12 A2987 RMK AO1 WSHFT (18)42 SLP163
METAR CYNL 241800Z AUTO 25010G19KT 9SM FEW019 SCT044 BKN150 M06/M14 A2989 RMK AO1 SLP171
SPECI CYNL 241740Z AUTO 27006KT 9SM SCT014 BKN047 M07/M13 A2989 RMK AO1 SLP172
SPECI CYNL 241739Z AUTO 27006KT 9SM SCT015 BKN026 BKN200 M07/M13 A2989 RMK AO1 SLP173
SPECI CYNL 241734Z AUTO 27005KT 9SM FEW006 BKN015 BKN026 M07/M12 A2989 RMK AO1 SLP173
SPECI CYNL 241732Z AUTO 27006KT 4SM VV014 M07/M12 A2989 RMK AO1 SLP174
SPECI CYNL 241731Z AUTO 27007KT 3SM VV015 M07/M12 A2989 RMK AO1 SLP174
SPECI CYNL 241730Z AUTO 27008KT 1 3/4SM VV015 M07/M12 A2989 RMK AO1 SLP174
SPECI CYNL 241729Z AUTO 27008KT 1 1/4SM VV015 M07/M12 A2989 RMK AO1 SLP175
SPECI CYNL 241728Z AUTO 28008KT 1SM VV014 M07/M12 A2989 RMK AO1 SLP175
SPECI CYNL 241727Z AUTO 29008KT 3/4SM VV014 M07/M12 A2989 RMK AO1 SLP175
SPECI CYNL 241725Z AUTO 27008KT 3/4SM VV016 M07/M12 A2990 RMK AO1 SLP175
SPECI CYNL 241722Z AUTO 26008KT 1 1/4SM VV019 M07/M12 A2990 RMK AO1 SLP175
SPECI CYNL 241721Z AUTO 26010KT 1 3/4SM FEW006 BKN017 OVC027 M07/M12 A2990 RMK AO1 SLP175
SPECI CYNL 241720Z AUTO 26009KT 2 1/2SM SCT009 BKN020 OVC028 M07/M12 A2990 RMK AO1 SLP175
SPECI CYNL 241715Z AUTO 25008KT 4SM SCT010 BKN020 BKN029 M07/M12 A2990 RMK AO1 SLP175
SPECI CYNL 241714Z AUTO 25008KT 3SM BKN010 BKN020 OVC029 M07/M12 A2990 RMK AO1 SLP176
SPECI CYNL 241713Z AUTO 25009KT 1SM VV016 M08/M12 A2990 RMK AO1 SLP176
SPECI CYNL 241712Z AUTO 25010KT 3/4SM VV014 M08/M12 A2990 RMK AO1 SLP176
SPECI CYNL 241711Z AUTO 25010KT 1/2SM VV014 M08/M12 A2990 RMK AO1 SLP176
SPECI CYNL 241710Z AUTO 25007KT 3/4SM VV015 M08/M12 A2990 RMK AO1 SLP176
SPECI CYNL 241709Z AUTO 24006KT 1SM VV017 M08/M12 A2990 RMK AO1 SLP176
SPECI CYNL 241704Z AUTO 26006KT 2SM VV015 M08/M12 A2990 RMK AO1 SLP177
SPECI CYNL 241702Z AUTO 25007KT 1SM VV017 M08/M12 A2990 RMK AO1 SLP177
SPECI CYNL 241701Z AUTO 25007KT 3/4SM VV015 M08/M12 A2990 RMK AO1 SLP177
METAR CYNL 241700Z AUTO 25007KT 1SM VV014 M08/M13 A2990 RMK AO1 SLP177
SPECI CYNL 241659Z AUTO 24007KT 1 1/2SM VV014 M08/M13 A2990 RMK AO1 SLP177
SPECI CYNL 241658Z AUTO 25007KT 2SM VV014 M08/M13 A2990 RMK AO1 SLP177
SPECI CYNL 241656Z AUTO 25008KT 5SM VV015 M08/M12 A2990 RMK AO1 SLP178
SPECI CYNL 241655Z AUTO 25008KT 1 1/2SM VV012 M08/M12 A2990 RMK AO1 SLP178
SPECI CYNL 241652Z AUTO 25010KT 1/2SM VV013 M08/M12 A2990 RMK AO1 SLP178
SPECI CYNL 241651Z AUTO 25009G16KT 3/4SM VV015 M08/M12 A2990 RMK AO1 SLP178
SPECI CYNL 241646Z AUTO 24010G16KT 1 1/4SM VV019 M07/M12 A2990 RMK AO1 SLP177
SPECI CYNL 241642Z AUTO 24011KT 1 3/4SM VV021 M07/M12 A2990 RMK AO1 SLP177
SPECI CYNL 241635Z AUTO 24007KT 4SM VV015 M07/M12 A2990 RMK AO1 SLP178
SPECI CYNL 241634Z AUTO 24008G16KT 4SM VV014 M07/M12 A2991 RMK AO1 SLP178
SPECI CYNL 241633Z AUTO 24009G16KT 3SM VV015 M07/M12 A2991 RMK AO1 SLP179
SPECI CYNL 241631Z AUTO 24010G16KT 2SM VV016 M07/M12 A2991 RMK AO1 SLP179
SPECI CYNL 241627Z AUTO 24009G16KT 1 1/2SM VV015 M07/M12 A2991 RMK AO1 SLP180
SPECI CYNL 241625Z AUTO 24011G16KT 1 1/4SM VV016 M08/M12 A2991 RMK AO1 SLP180
SPECI CYNL 241624Z AUTO 24010G16KT 1 1/2SM VV017 M07/M12 A2991 RMK AO1 SLP180
SPECI CYNL 241623Z AUTO 24009G15KT 2SM VV018 M07/M13 A2991 RMK AO1 SLP180
SPECI CYNL 241622Z AUTO 24010G15KT 1 3/4SM VV018 M07/M13 A2991 RMK AO1 SLP180
SPECI CYNL 241621Z AUTO 25009G15KT 1 1/4SM VV018 M08/M13 A2991 RMK AO1 SLP180
SPECI CYNL 241620Z AUTO 25009G15KT 1 3/4SM VV018 M07/M13 A2991 RMK AO1 SLP180
SPECI CYNL 241619Z AUTO 24010G15KT 2SM VV019 M07/M13 A2991 RMK AO1 SLP180
SPECI CYNL 241613Z AUTO 25006G16KT 8SM FEW009 BKN026 OVC190 M07/M14 A2991 RMK AO1 SLP181
SPECI CYNL 241607Z AUTO 24007G17KT 5SM VV022 M08/M14 A2991 RMK AO1 SLP182
SPECI CYNL 241604Z AUTO 24012G17KT 4SM FEW015 BKN025 BKN032 M08/M14 A2992 RMK AO1 SLP183
SPECI CYNL 241602Z AUTO 23013KT 6SM SCT025 BKN031 OVC160 M08/M14 A2992 RMK AO1 SLP183
METAR CYNL 241600Z AUTO 25007KT 9SM BKN028 OVC210 M08/M14 A2992 RMK AO1 SLP182
SPECI CYNL 241559Z AUTO 24006KT 9SM SCT024 BKN031 OVC210 M08/M14 A2992 RMK AO1 SLP182
SPECI CYNL 241550Z AUTO 24008G15KT 9SM BKN028 OVC220 M08/M14 A2992 RMK AO1 PRESFR SLP183
METAR CYNL 241500Z AUTO 24008KT 9SM SCT023 M09/M15 A2993 RMK AO1 PRESFR SLP188
SPECI CYNL 241457Z AUTO 24007KT 9SM SCT023 M09/M15 A2993 RMK AO1 SLP187
SPECI CYNL 241446Z AUTO 25010G16KT 4SM VV023 M09/M15 A2994 RMK AO1 SLP189
METAR CYNL 241400Z AUTO 24008KT 9SM FEW062 M10/M16 A2995 RMK AO1 SLP196
METAR CYNL 241300Z AUTO 22006KT 9SM BKN058 M11/M16 A2997 RMK AO1 SLP201
METAR CYNL 241200Z AUTO 22003KT 9SM OVC052 M13/M17 A2998 RMK AO1 SLP206
METAR CYNL 241100Z AUTO 00000KT 9SM OVC052 M13/M17 A2998 RMK AO1 SLP208
METAR CYNL 241000Z AUTO 23004KT 9SM OVC054 M13/M16 A2998 RMK AO1 SLP207
METAR CYNL 240900Z AUTO 22003KT 9SM FEW029 BKN052 M13/M16 A2999 RMK AO1 SLP210
SPECI CYNL 240825Z AUTO 23004KT 9SM FEW009 BKN052 M13/M16 A3000 RMK AO1 SLP211
METAR CYNL 240800Z AUTO 23004KT 9SM BKN052 M13/M16 A3000 RMK AO1 SLP212
SPECI CYNL 240711Z AUTO 25005KT 5SM FEW010 BKN050 M13/M17 A3001 RMK AO1 SLP215
SPECI CYNL 240709Z AUTO 24005KT 2 1/2SM FEW008 OVC050 M13/M17 A3001 RMK AO1 SLP215
SPECI CYNL 240705Z AUTO 24005KT 7SM FEW009 OVC050 M13/M17 A3001 RMK AO1 SLP215
METAR CYNL 240700Z AUTO 25005KT 9SM OVC050 M13/M17 A3001 RMK AO1 SLP215
METAR CYNL 240600Z AUTO 22004KT 9SM OVC050 M13/M18 A3002 RMK AO1 SLP218
METAR CYNL 240500Z AUTO 23004KT 9SM OVC052 M13/M19 A3003 RMK AO1 SLP223
METAR CYNL 240400Z AUTO 24004KT 9SM BKN050 M12/M19 A3004 RMK AO1 SLP228
METAR CYNL 240300Z AUTO 26003KT 9SM OVC048 M11/M19 A3004 RMK AO1 SLP228
METAR CYNL 240200Z AUTO 27005KT 9SM OVC044 M11/M19 A3005 RMK AO1 SLP229
METAR CYNL 240100Z AUTO 30008KT 9SM OVC038 M11/M20 A3005 RMK AO1 SLP232
METAR CYNL 240000Z AUTO 30007KT 9SM OVC036 M10/M18 A3005 RMK AO1 SLP232
METAR CYNL 232300Z AUTO 30010KT 9SM BKN039 M10/M18 A3004 RMK AO1 SLP234
METAR CYNL 232200Z AUTO 30009G17KT 9SM SCT040 M09/M19 A3004 RMK AO1 SLP232